Observation data for Boys Ranch on 10/18/2019      Previous  Date       Current Mesonet Observations  Soil Data  Daily Summary Page  Observations in Plain Language
KBY1 180500Z 20012G18KT 18/03 A2978 RMK A01 T01840029  RH  036%=      5-min Rain = 0
KBY1 180501Z 20013KT 18/03 A2978 RMK A01 T01840029  RH  036%=      5-min Rain = 0
KBY1 180502Z 20016KT 18/03 A2977 RMK A01 T01840029  RH  036%=      5-min Rain = 0
KBY1 180503Z 20015KT 18/03 A2977 RMK A01 T01840029  RH  035%=      5-min Rain = 0
KBY1 180504Z 20013KT 19/03 A2977 RMK A01 T01860029  RH  035%=      5-min Rain = 0
KBY1 180505Z 20014KT 19/03 A2977 RMK A01 T01860029  RH  035%=      5-min Rain = 0
KBY1 180506Z 20016KT 19/03 A2977 RMK A01 T01860029  RH  035%=      5-min Rain = 0
KBY1 180507Z 21015KT 19/03 A2977 RMK A01 T01860028  RH  035%=      5-min Rain = 0
KBY1 180508Z 21011G17KT 19/03 A2977 RMK A01 T01870029  RH  035%=      5-min Rain = 0
KBY1 180509Z 20014KT 19/03 A2977 RMK A01 T01860029  RH  035%=      5-min Rain = 0
KBY1 180510Z 20014G20KT 19/03 A2977 RMK A01 T01860029  RH  035%=      5-min Rain = 0
KBY1 180511Z 20015G20KT 19/03 A2977 RMK A01 T01860029  RH  035%=      5-min Rain = 0
KBY1 180512Z 20017KT 19/03 A2977 RMK A01 T01870029  RH  035%=      5-min Rain = 0
KBY1 180513Z 20014KT 19/03 A2977 RMK A01 T01890029  RH  035%=      5-min Rain = 0
KBY1 180514Z 20017KT 19/03 A2977 RMK A01 T01890029  RH  035%=      5-min Rain = 0
KBY1 180515Z 20013KT 19/03 A2977 RMK A01 T01890029  RH  034%=      5-min Rain = 0
KBY1 180516Z 20013KT 19/03 A2977 RMK A01 T01890029  RH  034%=      5-min Rain = 0
KBY1 180517Z 20013KT 19/03 A2977 RMK A01 T01890029  RH  034%=      5-min Rain = 0
KBY1 180518Z 20014G19KT 19/03 A2977 RMK A01 T01890029  RH  035%=      5-min Rain = 0
KBY1 180519Z 20011G16KT 19/03 A2977 RMK A01 T01890029  RH  034%=      5-min Rain = 0
KBY1 180520Z 20013KT 19/03 A2977 RMK A01 T01890029  RH  034%=      5-min Rain = 0
KBY1 180521Z 20012KT 19/03 A2977 RMK A01 T01890029  RH  035%=      5-min Rain = 0
KBY1 180522Z 20011KT 19/03 A2977 RMK A01 T01880029  RH  035%=      5-min Rain = 0
KBY1 180523Z 20010G15KT 19/03 A2977 RMK A01 T01870029  RH  035%=      5-min Rain = 0
KBY1 180524Z 20011KT 19/03 A2977 RMK A01 T01870029  RH  035%=      5-min Rain = 0
KBY1 180525Z 20010KT 19/03 A2977 RMK A01 T01870029  RH  035%=      5-min Rain = 0
KBY1 180526Z 20011KT 19/03 A2977 RMK A01 T01860029  RH  035%=      5-min Rain = 0
KBY1 180527Z 19013KT 19/03 A2977 RMK A01 T01860029  RH  035%=      5-min Rain = 0
KBY1 180528Z 20013KT 19/03 A2977 RMK A01 T01860028  RH  035%=      5-min Rain = 0
KBY1 180529Z 20011KT 19/03 A2977 RMK A01 T01860028  RH  035%=      5-min Rain = 0
KBY1 180530Z 20012KT 19/03 A2977 RMK A01 T01860029  RH  035%=      5-min Rain = 0
KBY1 180531Z 20013KT 19/03 A2977 RMK A01 T01860029  RH  035%=      5-min Rain = 0
KBY1 180532Z 20014KT 19/03 A2977 RMK A01 T01860028  RH  035%=      5-min Rain = 0
KBY1 180533Z 20015G20KT 19/03 A2977 RMK A01 T01870028  RH  035%=      5-min Rain = 0
KBY1 180534Z 19013KT 19/03 A2977 RMK A01 T01880028  RH  035%=      5-min Rain = 0
KBY1 180535Z 20010KT 19/03 A2977 RMK A01 T01880029  RH  035%=      5-min Rain = 0
KBY1 180536Z 20011KT 19/03 A2977 RMK A01 T01860029  RH  035%=      5-min Rain = 0
KBY1 180537Z 20012KT 18/03 A2977 RMK A01 T01840028  RH  035%=      5-min Rain = 0
KBY1 180538Z 19012KT 18/03 A2977 RMK A01 T01840029  RH  036%=      5-min Rain = 0
KBY1 180539Z 20015G21KT 18/03 A2977 RMK A01 T01840028  RH  035%=      5-min Rain = 0
KBY1 180540Z 20013KT 19/03 A2977 RMK A01 T01860028  RH  035%=      5-min Rain = 0
KBY1 180541Z 19012G18KT 19/03 A2977 RMK A01 T01860028  RH  035%=      5-min Rain = 0
KBY1 180542Z 19013KT 19/03 A2977 RMK A01 T01870028  RH  035%=      5-min Rain = 0
KBY1 180543Z 20014KT 19/03 A2977 RMK A01 T01870028  RH  035%=      5-min Rain = 0
KBY1 180544Z 20015KT 19/03 A2977 RMK A01 T01870028  RH  035%=      5-min Rain = 0
KBY1 180545Z 20014KT 19/03 A2977 RMK A01 T01870028  RH  035%=      5-min Rain = 0
KBY1 180546Z 20013KT 19/03 A2977 RMK A01 T01880028  RH  035%=      5-min Rain = 0
KBY1 180547Z 20015KT 19/03 A2977 RMK A01 T01870028  RH  035%=      5-min Rain = 0
KBY1 180548Z 20014KT 19/03 A2977 RMK A01 T01870028  RH  035%=      5-min Rain = 0
KBY1 180549Z 19012KT 19/03 A2977 RMK A01 T01860028  RH  035%=      5-min Rain = 0
KBY1 180550Z 19012KT 19/03 A2977 RMK A01 T01850029  RH  035%=      5-min Rain = 0
KBY1 180551Z 19011KT 18/03 A2977 RMK A01 T01830029  RH  036%=      5-min Rain = 0
KBY1 180552Z 20012KT 18/03 A2977 RMK A01 T01820029  RH  036%=      5-min Rain = 0
KBY1 180553Z 20013KT 18/03 A2977 RMK A01 T01810029  RH  036%=      5-min Rain = 0
KBY1 180554Z 19013KT 18/03 A2977 RMK A01 T01800029  RH  036%=      5-min Rain = 0
KBY1 180555Z 19012G17KT 18/03 A2977 RMK A01 T01800029  RH  037%=      5-min Rain = 0
KBY1 180556Z 19014G20KT 18/03 A2977 RMK A01 T01790030  RH  037%=      5-min Rain = 0
KBY1 180557Z 20015KT 18/03 A2977 RMK A01 T01790030  RH  037%=      5-min Rain = 0
KBY1 180558Z 20014G20KT 18/03 A2977 RMK A01 T01780030  RH  037%=      5-min Rain = 0
KBY1 180559Z 20015G20KT 18/03 A2977 RMK A01 T01770030  RH  037%=      5-min Rain = 0
KBY1 180600Z 20013KT 18/03 A2977 RMK A01 T01770030  RH  037%=      5-min Rain = 0
KBY1 180601Z 20013KT 18/03 A2977 RMK A01 T01770030  RH  038%=      5-min Rain = 0
KBY1 180602Z 20015KT 18/03 A2977 RMK A01 T01760031  RH  038%=      5-min Rain = 0
KBY1 180603Z 20012KT 18/03 A2977 RMK A01 T01760030  RH  038%=      5-min Rain = 0
KBY1 180604Z 20014KT 18/03 A2977 RMK A01 T01750030  RH  038%=      5-min Rain = 0
KBY1 180605Z 20012KT 17/03 A2977 RMK A01 T01740031  RH  038%=      5-min Rain = 0
KBY1 180606Z 20011KT 17/03 A2977 RMK A01 T01730031  RH  039%=      5-min Rain = 0
KBY1 180607Z 20013KT 17/03 A2977 RMK A01 T01730031  RH  039%=      5-min Rain = 0
KBY1 180608Z 20014KT 17/03 A2977 RMK A01 T01720031  RH  039%=      5-min Rain = 0
KBY1 180609Z 20013KT 17/03 A2977 RMK A01 T01730031  RH  039%=      5-min Rain = 0
KBY1 180610Z 20015KT 17/03 A2977 RMK A01 T01730031  RH  039%=      5-min Rain = 0
KBY1 180611Z 19012KT 17/03 A2977 RMK A01 T01720031  RH  039%=      5-min Rain = 0
KBY1 180612Z 20011G16KT 17/03 A2977 RMK A01 T01710031  RH  039%=      5-min Rain = 0
KBY1 180613Z 20011KT 17/03 A2977 RMK A01 T01710031  RH  039%=      5-min Rain = 0
KBY1 180614Z 20012KT 17/03 A2977 RMK A01 T01710031  RH  039%=      5-min Rain = 0
KBY1 180615Z 19011KT 17/03 A2976 RMK A01 T01710031  RH  039%=      5-min Rain = 0
KBY1 180616Z 20011KT 17/03 A2977 RMK A01 T01710031  RH  039%=      5-min Rain = 0
KBY1 180617Z 20011KT 17/03 A2977 RMK A01 T01700031  RH  039%=      5-min Rain = 0
KBY1 180618Z 20010KT 17/03 A2977 RMK A01 T01700031  RH  039%=      5-min Rain = 0
KBY1 180619Z 19013KT 17/03 A2977 RMK A01 T01700031  RH  039%=      5-min Rain = 0
KBY1 180620Z 20012KT 17/03 A2976 RMK A01 T01710031  RH  039%=      5-min Rain = 0
KBY1 180621Z 20012KT 17/03 A2977 RMK A01 T01720031  RH  039%=      5-min Rain = 0
KBY1 180622Z 20011KT 17/03 A2977 RMK A01 T01720031  RH  039%=      5-min Rain = 0
KBY1 180623Z 20013G18KT 17/03 A2977 RMK A01 T01720031  RH  039%=      5-min Rain = 0
KBY1 180624Z 19013G18KT 17/03 A2977 RMK A01 T01730031  RH  039%=      5-min Rain = 0
KBY1 180625Z 19013KT 17/03 A2977 RMK A01 T01730031  RH  039%=      5-min Rain = 0
KBY1 180626Z 19013G18KT 17/03 A2976 RMK A01 T01730031  RH  039%=      5-min Rain = 0
KBY1 180627Z 19013KT 17/03 A2976 RMK A01 T01730031  RH  039%=      5-min Rain = 0
KBY1 180628Z 19015KT 17/03 A2976 RMK A01 T01740030  RH  038%=      5-min Rain = 0
KBY1 180629Z 19011KT 18/03 A2976 RMK A01 T01750031  RH  038%=      5-min Rain = 0
KBY1 180630Z 19011KT 17/03 A2976 RMK A01 T01740031  RH  038%=      5-min Rain = 0
KBY1 180631Z 20014G19KT 17/03 A2976 RMK A01 T01740031  RH  039%=      5-min Rain = 0
KBY1 180632Z 20014KT 17/03 A2976 RMK A01 T01730031  RH  038%=      5-min Rain = 0
KBY1 180633Z 20012G17KT 17/03 A2976 RMK A01 T01740031  RH  038%=      5-min Rain = 0
KBY1 180634Z 19013G18KT 17/03 A2976 RMK A01 T01740031  RH  038%=      5-min Rain = 0
KBY1 180635Z 20013KT 18/03 A2976 RMK A01 T01750031  RH  038%=      5-min Rain = 0
KBY1 180636Z 19014KT 18/03 A2976 RMK A01 T01750031  RH  038%=      5-min Rain = 0
KBY1 180637Z 20014KT 18/03 A2976 RMK A01 T01750031  RH  038%=      5-min Rain = 0
KBY1 180638Z 20012KT 17/03 A2976 RMK A01 T01740031  RH  038%=      5-min Rain = 0
KBY1 180639Z 20011KT 18/03 A2976 RMK A01 T01750031  RH  038%=      5-min Rain = 0
KBY1 180640Z 20011KT 18/03 A2976 RMK A01 T01750031  RH  038%=      5-min Rain = 0
KBY1 180641Z 19013KT 17/03 A2976 RMK A01 T01740031  RH  038%=      5-min Rain = 0
KBY1 180642Z 20013G18KT 17/03 A2976 RMK A01 T01740031  RH  039%=      5-min Rain = 0
KBY1 180643Z 20013KT 17/03 A2976 RMK A01 T01740031  RH  038%=      5-min Rain = 0
KBY1 180644Z 19012KT 18/03 A2976 RMK A01 T01750031  RH  038%=      5-min Rain = 0
KBY1 180645Z 19013KT 17/03 A2976 RMK A01 T01740031  RH  038%=      5-min Rain = 0
KBY1 180646Z 19011G16KT 17/03 A2976 RMK A01 T01740031  RH  038%=      5-min Rain = 0
KBY1 180647Z 20013KT 17/03 A2976 RMK A01 T01740031  RH  038%=      5-min Rain = 0
KBY1 180648Z 19010KT 17/03 A2976 RMK A01 T01740031  RH  038%=      5-min Rain = 0
KBY1 180649Z 19010KT 17/03 A2976 RMK A01 T01740031  RH  038%=      5-min Rain = 0
KBY1 180650Z 19014KT 17/03 A2976 RMK A01 T01720031  RH  039%=      5-min Rain = 0
KBY1 180651Z 19012KT 17/03 A2975 RMK A01 T01730031  RH  039%=      5-min Rain = 0
KBY1 180652Z 19013KT 17/03 A2975 RMK A01 T01740031  RH  039%=      5-min Rain = 0
KBY1 180653Z 19012KT 17/03 A2975 RMK A01 T01740031  RH  038%=      5-min Rain = 0
KBY1 180654Z 19013KT 18/03 A2975 RMK A01 T01750031  RH  038%=      5-min Rain = 0
KBY1 180655Z 19012KT 17/03 A2975 RMK A01 T01740031  RH  038%=      5-min Rain = 0
KBY1 180656Z 19012KT 17/03 A2975 RMK A01 T01740031  RH  039%=      5-min Rain = 0
KBY1 180657Z 19011KT 17/03 A2975 RMK A01 T01730031  RH  039%=      5-min Rain = 0
KBY1 180658Z 20014KT 17/03 A2975 RMK A01 T01730031  RH  039%=      5-min Rain = 0
KBY1 180659Z 19014KT 17/03 A2975 RMK A01 T01740031  RH  038%=      5-min Rain = 0
KBY1 180700Z 20013G18KT 17/03 A2975 RMK A01 T01740031  RH  038%=      5-min Rain = 0
KBY1 180701Z 19011KT 17/03 A2975 RMK A01 T01740031  RH  038%=      5-min Rain = 0
KBY1 180702Z 19011KT 17/03 A2975 RMK A01 T01740032  RH  039%=      5-min Rain = 0
KBY1 180703Z 19012KT 17/03 A2975 RMK A01 T01730032  RH  039%=      5-min Rain = 0
KBY1 180704Z 20014KT 17/03 A2975 RMK A01 T01730031  RH  039%=      5-min Rain = 0
KBY1 180705Z 20012G18KT 17/03 A2975 RMK A01 T01730031  RH  039%=      5-min Rain = 0
KBY1 180706Z 19011KT 17/03 A2975 RMK A01 T01740032  RH  039%=      5-min Rain = 0
KBY1 180707Z 20011G16KT 17/03 A2975 RMK A01 T01740032  RH  039%=      5-min Rain = 0
KBY1 180708Z 20012KT 17/03 A2975 RMK A01 T01730032  RH  039%=      5-min Rain = 0
KBY1 180709Z 20012KT 17/03 A2975 RMK A01 T01730031  RH  039%=      5-min Rain = 0
KBY1 180710Z 20011KT 17/03 A2975 RMK A01 T01730032  RH  039%=      5-min Rain = 0
KBY1 180711Z 20013KT 17/03 A2975 RMK A01 T01730032  RH  039%=      5-min Rain = 0
KBY1 180712Z 19010KT 17/03 A2975 RMK A01 T01720032  RH  039%=      5-min Rain = 0
KBY1 180713Z 20011KT 17/03 A2975 RMK A01 T01730032  RH  039%=      5-min Rain = 0
KBY1 180714Z 19008KT 17/03 A2975 RMK A01 T01720032  RH  039%=      5-min Rain = 0
KBY1 180715Z 19014KT 17/03 A2975 RMK A01 T01720032  RH  039%=      5-min Rain = 0
KBY1 180716Z 19013KT 17/03 A2975 RMK A01 T01720032  RH  039%=      5-min Rain = 0
KBY1 180717Z 19015KT 17/03 A2975 RMK A01 T01720032  RH  039%=      5-min Rain = 0
KBY1 180718Z 20014KT 17/03 A2975 RMK A01 T01730032  RH  039%=      5-min Rain = 0
KBY1 180719Z 19012KT 17/03 A2975 RMK A01 T01740032  RH  039%=      5-min Rain = 0
KBY1 180720Z 19014G20KT 18/03 A2975 RMK A01 T01750032  RH  038%=      5-min Rain = 0
KBY1 180721Z 19014G20KT 18/03 A2975 RMK A01 T01750032  RH  038%=      5-min Rain = 0
KBY1 180722Z 19013KT 18/03 A2975 RMK A01 T01760032  RH  038%=      5-min Rain = 0
KBY1 180723Z 19014KT 18/03 A2975 RMK A01 T01760032  RH  038%=      5-min Rain = 0
KBY1 180724Z 19014G20KT 18/03 A2975 RMK A01 T01760032  RH  038%=      5-min Rain = 0
KBY1 180725Z 18015KT 18/03 A2975 RMK A01 T01760032  RH  038%=      5-min Rain = 0
KBY1 180726Z 19014KT 18/03 A2975 RMK A01 T01770032  RH  038%=      5-min Rain = 0
KBY1 180727Z 19015KT 18/03 A2975 RMK A01 T01770031  RH  038%=      5-min Rain = 0
KBY1 180728Z 18012KT 18/03 A2975 RMK A01 T01770031  RH  038%=      5-min Rain = 0
KBY1 180729Z 18010KT 18/03 A2975 RMK A01 T01760032  RH  038%=      5-min Rain = 0
KBY1 180730Z 18010G15KT 18/03 A2975 RMK A01 T01750032  RH  039%=      5-min Rain = 0
KBY1 180731Z 19014KT 17/03 A2975 RMK A01 T01740032  RH  039%=      5-min Rain = 0
KBY1 180732Z 18013KT 17/03 A2975 RMK A01 T01740032  RH  039%=      5-min Rain = 0
KBY1 180733Z 19012KT 17/03 A2975 RMK A01 T01730032  RH  039%=      5-min Rain = 0
KBY1 180734Z 19013G18KT 17/03 A2975 RMK A01 T01730032  RH  039%=      5-min Rain = 0
KBY1 180735Z 19011KT 17/03 A2975 RMK A01 T01720032  RH  039%=      5-min Rain = 0
KBY1 180736Z 18013KT 17/03 A2975 RMK A01 T01710032  RH  039%=      5-min Rain = 0
KBY1 180737Z 19013KT 17/03 A2975 RMK A01 T01710032  RH  039%=      5-min Rain = 0
KBY1 180738Z 20013G22KT 17/03 A2975 RMK A01 T01700031  RH  039%=      5-min Rain = 0
KBY1 180739Z 19017KT 17/03 A2975 RMK A01 T01700031  RH  040%=      5-min Rain = 0
KBY1 180740Z 20016KT 17/03 A2975 RMK A01 T01700031  RH  040%=      5-min Rain = 0
KBY1 180741Z 19015G21KT 17/03 A2975 RMK A01 T01700032  RH  040%=      5-min Rain = 0
KBY1 180742Z 20014KT 17/03 A2975 RMK A01 T01690032  RH  040%=      5-min Rain = 0
KBY1 180743Z 19012G17KT 17/03 A2975 RMK A01 T01690032  RH  040%=      5-min Rain = 0
KBY1 180744Z 19016G21KT 17/03 A2975 RMK A01 T01670032  RH  040%=      5-min Rain = 0
KBY1 180745Z 20012G18KT 17/03 A2975 RMK A01 T01670032  RH  040%=      5-min Rain = 0
KBY1 180746Z 19016KT 17/03 A2975 RMK A01 T01670032  RH  041%=      5-min Rain = 0
KBY1 180747Z 20014G21KT 17/03 A2975 RMK A01 T01660032  RH  041%=      5-min Rain = 0
KBY1 180748Z 20012KT 17/03 A2975 RMK A01 T01660032  RH  041%=      5-min Rain = 0
KBY1 180749Z 20016G22KT 17/03 A2975 RMK A01 T01660032  RH  041%=      5-min Rain = 0
KBY1 180750Z 20017KT 17/03 A2975 RMK A01 T01660032  RH  041%=      5-min Rain = 0
KBY1 180751Z 20012KT 17/03 A2975 RMK A01 T01660032  RH  041%=      5-min Rain = 0
KBY1 180752Z 19016KT 17/03 A2975 RMK A01 T01650032  RH  041%=      5-min Rain = 0
KBY1 180753Z 20015KT 17/03 A2975 RMK A01 T01650032  RH  041%=      5-min Rain = 0
KBY1 180754Z 20014KT 16/03 A2975 RMK A01 T01640032  RH  041%=      5-min Rain = 0
KBY1 180755Z 19013G19KT 16/03 A2975 RMK A01 T01640032  RH  041%=      5-min Rain = 0
KBY1 180756Z 20013G18KT 16/03 A2975 RMK A01 T01640032  RH  041%=      5-min Rain = 0
KBY1 180757Z 20016KT 16/03 A2975 RMK A01 T01630032  RH  041%=      5-min Rain = 0
KBY1 180758Z 19016KT 16/03 A2975 RMK A01 T01640032  RH  041%=      5-min Rain = 0
KBY1 180759Z 20011KT 16/03 A2975 RMK A01 T01630032  RH  041%=      5-min Rain = 0
KBY1 180800Z 20011KT 16/03 A2975 RMK A01 T01630032  RH  042%=      5-min Rain = 0
KBY1 180801Z 20013G19KT 16/03 A2974 RMK A01 T01620032  RH  042%=      5-min Rain = 0
KBY1 180802Z 20019G24KT 16/03 A2974 RMK A01 T01620033  RH  042%=      5-min Rain = 0
KBY1 180803Z 20020KT 16/03 A2974 RMK A01 T01640033  RH  041%=      5-min Rain = 0
KBY1 180804Z 20019KT 17/03 A2974 RMK A01 T01650033  RH  041%=      5-min Rain = 0
KBY1 180805Z 21015KT 17/03 A2974 RMK A01 T01650033  RH  041%=      5-min Rain = 0
KBY1 180806Z 20017G23KT 17/03 A2974 RMK A01 T01650034  RH  042%=      5-min Rain = 0
KBY1 180807Z 20016G22KT 16/03 A2974 RMK A01 T01640034  RH  042%=      5-min Rain = 0
KBY1 180808Z 20014KT 16/03 A2974 RMK A01 T01640034  RH  042%=      5-min Rain = 0
KBY1 180809Z 20016G21KT 16/04 A2974 RMK A01 T01640035  RH  042%=      5-min Rain = 0
KBY1 180810Z 20018KT 17/04 A2974 RMK A01 T01650035  RH  042%=      5-min Rain = 0
KBY1 180811Z 20015KT 17/04 A2974 RMK A01 T01650035  RH  042%=      5-min Rain = 0
KBY1 180812Z 20015KT 17/04 A2974 RMK A01 T01650035  RH  042%=      5-min Rain = 0
KBY1 180813Z 20015G20KT 17/04 A2975 RMK A01 T01650036  RH  042%=      5-min Rain = 0
KBY1 180814Z 20015KT 17/04 A2975 RMK A01 T01650036  RH  042%=      5-min Rain = 0
KBY1 180815Z 20015G20KT 17/04 A2974 RMK A01 T01650036  RH  042%=      5-min Rain = 0
KBY1 180816Z 20018KT 17/04 A2974 RMK A01 T01650036  RH  042%=      5-min Rain = 0
KBY1 180817Z 20014KT 17/04 A2974 RMK A01 T01660037  RH  042%=      5-min Rain = 0
KBY1 180818Z 21018KT 17/04 A2974 RMK A01 T01660038  RH  043%=      5-min Rain = 0
KBY1 180819Z 21013KT 17/04 A2975 RMK A01 T01670040  RH  043%=      5-min Rain = 0
KBY1 180820Z 21015G20KT 17/04 A2975 RMK A01 T01670040  RH  043%=      5-min Rain = 0
KBY1 180821Z 21015G20KT 17/04 A2975 RMK A01 T01670041  RH  043%=      5-min Rain = 0
KBY1 180822Z 21013G19KT 17/04 A2975 RMK A01 T01670041  RH  043%=      5-min Rain = 0
KBY1 180823Z 21014KT 17/04 A2975 RMK A01 T01670042  RH  043%=      5-min Rain = 0
KBY1 180824Z 21013G21KT 17/04 A2975 RMK A01 T01670042  RH  043%=      5-min Rain = 0
KBY1 180825Z 21016G22KT 17/04 A2975 RMK A01 T01680044  RH  044%=      5-min Rain = 0
KBY1 180826Z 21015KT 17/04 A2975 RMK A01 T01690044  RH  043%=      5-min Rain = 0
KBY1 180827Z 20015G20KT 17/04 A2975 RMK A01 T01700044  RH  043%=      5-min Rain = 0
KBY1 180828Z 21015G21KT 17/04 A2975 RMK A01 T01700044  RH  043%=      5-min Rain = 0
KBY1 180829Z 20015G20KT 17/05 A2975 RMK A01 T01700045  RH  043%=      5-min Rain = 0
KBY1 180830Z 21014KT 17/05 A2975 RMK A01 T01700045  RH  043%=      5-min Rain = 0
KBY1 180831Z 21011KT 17/04 A2975 RMK A01 T01690044  RH  043%=      5-min Rain = 0
KBY1 180832Z 21013KT 17/04 A2975 RMK A01 T01680044  RH  044%=      5-min Rain = 0
KBY1 180833Z 20015G20KT 17/04 A2975 RMK A01 T01680044  RH  044%=      5-min Rain = 0
KBY1 180834Z 21013G18KT 17/04 A2975 RMK A01 T01680044  RH  044%=      5-min Rain = 0
KBY1 180835Z 21011G17KT 17/05 A2975 RMK A01 T01680045  RH  044%=      5-min Rain = 0
KBY1 180836Z 20014G19KT 17/04 A2975 RMK A01 T01670044  RH  044%=      5-min Rain = 0
KBY1 180837Z 21013KT 17/05 A2975 RMK A01 T01670045  RH  044%=      5-min Rain = 0
KBY1 180838Z 21016G22KT 17/05 A2975 RMK A01 T01670045  RH  044%=      5-min Rain = 0
KBY1 180839Z 21016G23KT 17/05 A2975 RMK A01 T01670045  RH  044%=      5-min Rain = 0
KBY1 180840Z 20011G17KT 17/05 A2974 RMK A01 T01680045  RH  044%=      5-min Rain = 0
KBY1 180841Z 21017KT 17/05 A2974 RMK A01 T01670045  RH  044%=      5-min Rain = 0
KBY1 180842Z 21016KT 17/05 A2974 RMK A01 T01670045  RH  044%=      5-min Rain = 0
KBY1 180843Z 21013KT 17/05 A2974 RMK A01 T01670045  RH  044%=      5-min Rain = 0
KBY1 180844Z 21013G18KT 17/05 A2974 RMK A01 T01660046  RH  045%=      5-min Rain = 0
KBY1 180845Z 21012G17KT 17/05 A2974 RMK A01 T01660046  RH  045%=      5-min Rain = 0
KBY1 180846Z 21010KT 17/05 A2974 RMK A01 T01650046  RH  045%=      5-min Rain = 0
KBY1 180847Z 21014G20KT 17/05 A2974 RMK A01 T01650046  RH  045%=      5-min Rain = 0
KBY1 180848Z 21014G21KT 17/05 A2974 RMK A01 T01650047  RH  046%=      5-min Rain = 0
KBY1 180849Z 21015KT 17/05 A2973 RMK A01 T01650047  RH  046%=      5-min Rain = 0
KBY1 180850Z 21017G27KT 17/05 A2974 RMK A01 T01650047  RH  046%=      5-min Rain = 0
KBY1 180851Z 21017G27KT 17/05 A2973 RMK A01 T01650048  RH  046%=      5-min Rain = 0
KBY1 180852Z 21022G28KT 17/05 A2973 RMK A01 T01660048  RH  046%=      5-min Rain = 0
KBY1 180853Z 21018G25KT 17/05 A2973 RMK A01 T01670049  RH  046%=      5-min Rain = 0
KBY1 180854Z 21020G28KT 17/05 A2973 RMK A01 T01670050  RH  046%=      5-min Rain = 0
KBY1 180855Z 20018G26KT 17/05 A2973 RMK A01 T01680049  RH  045%=      5-min Rain = 0
KBY1 180856Z 21018G23KT 17/05 A2973 RMK A01 T01670049  RH  046%=      5-min Rain = 0
KBY1 180857Z 21019KT 17/05 A2973 RMK A01 T01670049  RH  046%=      5-min Rain = 0
KBY1 180858Z 21018G25KT 17/05 A2973 RMK A01 T01670050  RH  046%=      5-min Rain = 0
KBY1 180859Z 21017G23KT 17/05 A2973 RMK A01 T01660050  RH  046%=      5-min Rain = 0
KBY1 180900Z 20018G23KT 17/05 A2973 RMK A01 T01660050  RH  046%=      5-min Rain = 0
KBY1 180901Z 21018G23KT 17/05 A2973 RMK A01 T01660050  RH  046%=      5-min Rain = 0
KBY1 180902Z 20020G28KT 17/05 A2973 RMK A01 T01670051  RH  046%=      5-min Rain = 0
KBY1 180903Z 20018G24KT 17/05 A2973 RMK A01 T01670052  RH  046%=      5-min Rain = 0
KBY1 180904Z 21022G28KT 17/05 A2972 RMK A01 T01680052  RH  046%=      5-min Rain = 0
KBY1 180905Z 21019G25KT 17/05 A2973 RMK A01 T01690053  RH  046%=      5-min Rain = 0
KBY1 180906Z 21018KT 17/05 A2973 RMK A01 T01690053  RH  046%=      5-min Rain = 0
KBY1 180907Z 21018G23KT 17/05 A2973 RMK A01 T01690053  RH  046%=      5-min Rain = 0
KBY1 180908Z 21018KT 17/05 A2973 RMK A01 T01690053  RH  046%=      5-min Rain = 0
KBY1 180909Z 21017G25KT 17/05 A2973 RMK A01 T01690053  RH  046%=      5-min Rain = 0
KBY1 180910Z 21020KT 17/05 A2973 RMK A01 T01690053  RH  046%=      5-min Rain = 0
KBY1 180911Z 21022KT 17/05 A2972 RMK A01 T01690053  RH  046%=      5-min Rain = 0
KBY1 180912Z 21018KT 17/05 A2973 RMK A01 T01690053  RH  046%=      5-min Rain = 0
KBY1 180913Z 21022KT 17/05 A2972 RMK A01 T01690054  RH  046%=      5-min Rain = 0
KBY1 180914Z 21019G27KT 17/05 A2973 RMK A01 T01690053  RH  046%=      5-min Rain = 0
KBY1 180915Z 21018G26KT 17/05 A2973 RMK A01 T01680053  RH  047%=      5-min Rain = 0
KBY1 180916Z 21017G26KT 17/05 A2973 RMK A01 T01680053  RH  047%=      5-min Rain = 0
KBY1 180917Z 21017G25KT 17/05 A2972 RMK A01 T01670053  RH  047%=      5-min Rain = 0
KBY1 180918Z 20018G25KT 17/05 A2972 RMK A01 T01660053  RH  047%=      5-min Rain = 0
KBY1 180919Z 20019G25KT 17/05 A2972 RMK A01 T01660053  RH  047%=      5-min Rain = 0
KBY1 180920Z 21022G29KT 17/05 A2972 RMK A01 T01650053  RH  047%=      5-min Rain = 0
KBY1 180921Z 20021KT 17/05 A2972 RMK A01 T01660053  RH  047%=      5-min Rain = 0
KBY1 180922Z 21019G24KT 17/05 A2972 RMK A01 T01660054  RH  047%=      5-min Rain = 0
KBY1 180923Z 21020G27KT 17/05 A2972 RMK A01 T01660054  RH  047%=      5-min Rain = 0
KBY1 180924Z 20017G26KT 17/05 A2972 RMK A01 T01650054  RH  048%=      5-min Rain = 0
KBY1 180925Z 21021KT 17/05 A2972 RMK A01 T01650054  RH  048%=      5-min Rain = 0
KBY1 180926Z 20017G23KT 17/05 A2972 RMK A01 T01650054  RH  048%=      5-min Rain = 0
KBY1 180927Z 21020KT 17/05 A2972 RMK A01 T01650054  RH  048%=      5-min Rain = 0
KBY1 180928Z 21022G29KT 17/06 A2972 RMK A01 T01650055  RH  048%=      5-min Rain = 0
KBY1 180929Z 21021G27KT 17/06 A2972 RMK A01 T01660055  RH  048%=      5-min Rain = 0
KBY1 180930Z 21022G28KT 17/06 A2972 RMK A01 T01660055  RH  048%=      5-min Rain = 0
KBY1 180931Z 21019KT 17/06 A2972 RMK A01 T01670056  RH  048%=      5-min Rain = 0
KBY1 180932Z 21023KT 17/06 A2971 RMK A01 T01660056  RH  048%=      5-min Rain = 0
KBY1 180933Z 21019KT 17/06 A2971 RMK A01 T01660056  RH  048%=      5-min Rain = 0
KBY1 180934Z 20021G27KT 17/06 A2971 RMK A01 T01670057  RH  048%=      5-min Rain = 0
KBY1 180935Z 21020G28KT 17/06 A2971 RMK A01 T01670057  RH  048%=      5-min Rain = 0
KBY1 180936Z 20021KT 17/06 A2971 RMK A01 T01670057  RH  048%=      5-min Rain = 0
KBY1 180937Z 21017KT 17/06 A2972 RMK A01 T01670057  RH  048%=      5-min Rain = 0
KBY1 180938Z 20017G24KT 17/06 A2971 RMK A01 T01670057  RH  048%=      5-min Rain = 0
KBY1 180939Z 21021G26KT 17/06 A2971 RMK A01 T01670058  RH  049%=      5-min Rain = 0
KBY1 180940Z 20019G25KT 17/06 A2972 RMK A01 T01670058  RH  049%=      5-min Rain = 0
KBY1 180941Z 21023KT 17/06 A2972 RMK A01 T01670058  RH  048%=      5-min Rain = 0
KBY1 180942Z 21019G26KT 17/06 A2972 RMK A01 T01670058  RH  048%=      5-min Rain = 0
KBY1 180943Z 20018G24KT 17/06 A2972 RMK A01 T01670058  RH  049%=      5-min Rain = 0
KBY1 180944Z 20018G25KT 17/06 A2972 RMK A01 T01670058  RH  049%=      5-min Rain = 0
KBY1 180945Z 21017G22KT 17/06 A2972 RMK A01 T01660058  RH  049%=      5-min Rain = 0
KBY1 180946Z 21018G25KT 17/06 A2972 RMK A01 T01660059  RH  049%=      5-min Rain = 0
KBY1 180947Z 20020KT 17/06 A2972 RMK A01 T01650058  RH  049%=      5-min Rain = 0
KBY1 180948Z 21018G24KT 17/06 A2972 RMK A01 T01650058  RH  049%=      5-min Rain = 0
KBY1 180949Z 20017G25KT 17/06 A2972 RMK A01 T01650058  RH  049%=      5-min Rain = 0
KBY1 180950Z 20014KT 17/06 A2972 RMK A01 T01650059  RH  049%=      5-min Rain = 0
KBY1 180951Z 20013KT 16/06 A2972 RMK A01 T01640058  RH  050%=      5-min Rain = 0
KBY1 180952Z 21015G21KT 16/06 A2972 RMK A01 T01630058  RH  050%=      5-min Rain = 0
KBY1 180953Z 20016G24KT 16/06 A2972 RMK A01 T01630059  RH  050%=      5-min Rain = 0
KBY1 180954Z 20017G24KT 16/06 A2972 RMK A01 T01630059  RH  050%=      5-min Rain = 0
KBY1 180955Z 20020G27KT 16/06 A2971 RMK A01 T01630059  RH  050%=      5-min Rain = 0
KBY1 180956Z 21017G22KT 16/06 A2972 RMK A01 T01630059  RH  050%=      5-min Rain = 0
KBY1 180957Z 20017KT 16/06 A2972 RMK A01 T01640060  RH  050%=      5-min Rain = 0
KBY1 180958Z 20017KT 16/06 A2972 RMK A01 T01630060  RH  050%=      5-min Rain = 0
KBY1 180959Z 21012KT 16/06 A2972 RMK A01 T01630060  RH  050%=      5-min Rain = 0
KBY1 181000Z 21018G23KT 16/06 A2972 RMK A01 T01630060  RH  051%=      5-min Rain = 0
KBY1 181001Z 21016KT 16/06 A2972 RMK A01 T01630060  RH  051%=      5-min Rain = 0
KBY1 181002Z 21017G25KT 16/06 A2972 RMK A01 T01630061  RH  051%=      5-min Rain = 0
KBY1 181003Z 21018G26KT 16/06 A2972 RMK A01 T01640061  RH  051%=      5-min Rain = 0
KBY1 181004Z 21013G20KT 16/06 A2972 RMK A01 T01640061  RH  050%=      5-min Rain = 0
KBY1 181005Z 21012G17KT 16/06 A2972 RMK A01 T01640061  RH  051%=      5-min Rain = 0
KBY1 181006Z 21016G23KT 16/06 A2972 RMK A01 T01630061  RH  051%=      5-min Rain = 0
KBY1 181007Z 21012G17KT 16/06 A2973 RMK A01 T01630061  RH  051%=      5-min Rain = 0
KBY1 181008Z 22013KT 16/06 A2973 RMK A01 T01630061  RH  051%=      5-min Rain = 0
KBY1 181009Z 21013KT 16/06 A2973 RMK A01 T01620061  RH  051%=      5-min Rain = 0
KBY1 181010Z 21011KT 16/06 A2973 RMK A01 T01620061  RH  051%=      5-min Rain = 0
KBY1 181011Z 22013KT 16/06 A2973 RMK A01 T01620061  RH  051%=      5-min Rain = 0
KBY1 181012Z 23010G16KT 16/06 A2973 RMK A01 T01610061  RH  051%=      5-min Rain = 0
KBY1 181013Z 24008KT 16/06 A2973 RMK A01 T01610061  RH  051%=      5-min Rain = 0
KBY1 181014Z 23010KT 16/06 A2974 RMK A01 T01610061  RH  052%=      5-min Rain = 0
KBY1 181015Z 26005KT 16/06 A2974 RMK A01 T01600061  RH  052%=      5-min Rain = 0
KBY1 181016Z 25005KT 16/06 A2974 RMK A01 T01600061  RH  052%=      5-min Rain = 0
KBY1 181017Z 25008KT 16/06 A2974 RMK A01 T01580060  RH  052%=      5-min Rain = 0
KBY1 181018Z 25005KT 16/06 A2974 RMK A01 T01580061  RH  052%=      5-min Rain = 0
KBY1 181019Z 27004KT 16/06 A2974 RMK A01 T01580061  RH  053%=      5-min Rain = 0
KBY1 181020Z 27008KT 16/06 A2974 RMK A01 T01570060  RH  053%=      5-min Rain = 0
KBY1 181021Z 27007KT 16/06 A2974 RMK A01 T01570060  RH  052%=      5-min Rain = 0
KBY1 181022Z 26009KT 16/06 A2974 RMK A01 T01580060  RH  052%=      5-min Rain = 0
KBY1 181023Z 30007KT 16/06 A2974 RMK A01 T01570060  RH  052%=      5-min Rain = 0
KBY1 181024Z 29007KT 16/06 A2974 RMK A01 T01560059  RH  053%=      5-min Rain = 0
KBY1 181025Z 29006KT 15/06 A2974 RMK A01 T01540059  RH  053%=      5-min Rain = 0
KBY1 181026Z 30006KT 15/06 A2974 RMK A01 T01530059  RH  053%=      5-min Rain = 0
KBY1 181027Z 28006KT 15/06 A2974 RMK A01 T01520059  RH  054%=      5-min Rain = 0
KBY1 181028Z 30007KT 15/06 A2974 RMK A01 T01510059  RH  054%=      5-min Rain = 0
KBY1 181029Z 29006KT 15/06 A2974 RMK A01 T01510059  RH  054%=      5-min Rain = 0
KBY1 181030Z 29006KT 15/06 A2974 RMK A01 T01500060  RH  055%=      5-min Rain = 0
KBY1 181031Z 28005KT 15/06 A2974 RMK A01 T01500059  RH  055%=      5-min Rain = 0
KBY1 181032Z 28004KT 15/06 A2974 RMK A01 T01490060  RH  055%=      5-min Rain = 0
KBY1 181033Z 29006KT 15/06 A2974 RMK A01 T01490060  RH  055%=      5-min Rain = 0
KBY1 181034Z 29006KT 15/06 A2974 RMK A01 T01490060  RH  055%=      5-min Rain = 0
KBY1 181035Z 28006KT 15/06 A2974 RMK A01 T01500060  RH  055%=      5-min Rain = 0
KBY1 181036Z 29004KT 15/06 A2974 RMK A01 T01500060  RH  055%=      5-min Rain = 0
KBY1 181037Z 28006KT 15/06 A2974 RMK A01 T01510060  RH  055%=      5-min Rain = 0
KBY1 181038Z 29007KT 15/06 A2974 RMK A01 T01510060  RH  055%=      5-min Rain = 0
KBY1 181039Z 26008KT 15/06 A2974 RMK A01 T01510060  RH  055%=      5-min Rain = 0
KBY1 181040Z 26010KT 15/06 A2974 RMK A01 T01510060  RH  055%=      5-min Rain = 0
KBY1 181041Z 24008KT 15/06 A2974 RMK A01 T01520060  RH  054%=      5-min Rain = 0
KBY1 181042Z 26006G11KT 15/06 A2974 RMK A01 T01520060  RH  054%=      5-min Rain = 0
KBY1 181043Z 26008G13KT 15/06 A2974 RMK A01 T01520061  RH  054%=      5-min Rain = 0
KBY1 181044Z 26007KT 15/06 A2974 RMK A01 T01510061  RH  055%=      5-min Rain = 0
KBY1 181045Z 24007KT 15/06 A2974 RMK A01 T01500061  RH  055%=      5-min Rain = 0
KBY1 181046Z 21009KT 15/06 A2974 RMK A01 T01490060  RH  055%=      5-min Rain = 0
KBY1 181047Z 23008KT 15/06 A2974 RMK A01 T01490060  RH  055%=      5-min Rain = 0
KBY1 181048Z 23005KT 15/06 A2974 RMK A01 T01490061  RH  055%=      5-min Rain = 0
KBY1 181049Z 23008KT 15/06 A2974 RMK A01 T01490061  RH  056%=      5-min Rain = 0
KBY1 181050Z 22009KT 15/06 A2974 RMK A01 T01490061  RH  056%=      5-min Rain = 0
KBY1 181051Z 23006KT 15/06 A2974 RMK A01 T01480061  RH  056%=      5-min Rain = 0
KBY1 181052Z 24006KT 15/06 A2974 RMK A01 T01480061  RH  056%=      5-min Rain = 0
KBY1 181053Z 23005KT 15/06 A2974 RMK A01 T01470061  RH  056%=      5-min Rain = 0
KBY1 181054Z 25006KT 15/06 A2974 RMK A01 T01460061  RH  057%=      5-min Rain = 0
KBY1 181055Z 24008KT 15/06 A2974 RMK A01 T01450061  RH  057%=      5-min Rain = 0
KBY1 181056Z 23007KT 15/06 A2974 RMK A01 T01450061  RH  057%=      5-min Rain = 0
KBY1 181057Z 24005KT 15/06 A2974 RMK A01 T01450061  RH  057%=      5-min Rain = 0
KBY1 181058Z 26005KT 15/06 A2974 RMK A01 T01450061  RH  057%=      5-min Rain = 0
KBY1 181059Z 25008KT 14/06 A2974 RMK A01 T01440062  RH  057%=      5-min Rain = 0
KBY1 181100Z 26007KT 14/06 A2974 RMK A01 T01440062  RH  057%=      5-min Rain = 0
KBY1 181101Z 26007KT 15/06 A2974 RMK A01 T01450062  RH  057%=      5-min Rain = 0
KBY1 181102Z 26007KT 15/06 A2974 RMK A01 T01450062  RH  057%=      5-min Rain = 0
KBY1 181103Z 26009KT 15/06 A2974 RMK A01 T01450062  RH  057%=      5-min Rain = 0
KBY1 181104Z 28006KT 15/06 A2974 RMK A01 T01470063  RH  057%=      5-min Rain = 0
KBY1 181105Z 26004KT 15/06 A2974 RMK A01 T01470063  RH  057%=      5-min Rain = 0
KBY1 181106Z 26006KT 15/06 A2974 RMK A01 T01470063  RH  057%=      5-min Rain = 0
KBY1 181107Z 29005KT 15/06 A2974 RMK A01 T01470063  RH  057%=      5-min Rain = 0
KBY1 181108Z 32004KT 15/06 A2974 RMK A01 T01460062  RH  057%=      5-min Rain = 0
KBY1 181109Z 30004KT 15/06 A2975 RMK A01 T01470062  RH  057%=      5-min Rain = 0
KBY1 181110Z 27007KT 15/06 A2975 RMK A01 T01460062  RH  057%=      5-min Rain = 0
KBY1 181111Z 27006KT 15/06 A2974 RMK A01 T01470063  RH  057%=      5-min Rain = 0
KBY1 181112Z 30006G11KT 15/06 A2974 RMK A01 T01470064  RH  057%=      5-min Rain = 0
KBY1 181113Z 27008KT 15/06 A2974 RMK A01 T01480063  RH  057%=      5-min Rain = 0
KBY1 181114Z 29005KT 15/06 A2974 RMK A01 T01490064  RH  057%=      5-min Rain = 0
KBY1 181115Z 27004G10KT 15/06 A2974 RMK A01 T01490064  RH  057%=      5-min Rain = 0
KBY1 181116Z 25009KT 15/06 A2974 RMK A01 T01480064  RH  057%=      5-min Rain = 0
KBY1 181117Z 25007KT 15/06 A2975 RMK A01 T01480064  RH  057%=      5-min Rain = 0
KBY1 181118Z 26009KT 15/06 A2974 RMK A01 T01480064  RH  057%=      5-min Rain = 0
KBY1 181119Z 26006KT 15/07 A2974 RMK A01 T01480065  RH  057%=      5-min Rain = 0
KBY1 181120Z 28005KT 15/07 A2974 RMK A01 T01490065  RH  057%=      5-min Rain = 0
KBY1 181121Z 28004KT 15/07 A2975 RMK A01 T01480065  RH  057%=      5-min Rain = 0
KBY1 181122Z 28004KT 15/06 A2975 RMK A01 T01480064  RH  057%=      5-min Rain = 0
KBY1 181123Z 26004KT 15/06 A2975 RMK A01 T01470064  RH  057%=      5-min Rain = 0
KBY1 181124Z 27004KT 15/07 A2975 RMK A01 T01470065  RH  058%=      5-min Rain = 0
KBY1 181125Z 29005KT 15/07 A2975 RMK A01 T01470065  RH  058%=      5-min Rain = 0
KBY1 181126Z 29006KT 15/07 A2975 RMK A01 T01470065  RH  058%=      5-min Rain = 0
KBY1 181127Z 27004KT 15/07 A2975 RMK A01 T01460065  RH  058%=      5-min Rain = 0
KBY1 181128Z 27003KT 15/06 A2975 RMK A01 T01450064  RH  058%=      5-min Rain = 0
KBY1 181129Z 28003KT 15/07 A2975 RMK A01 T01450065  RH  058%=      5-min Rain = 0
KBY1 181130Z 24006KT 15/07 A2975 RMK A01 T01450065  RH  059%=      5-min Rain = 0
KBY1 181131Z 25005KT 15/07 A2975 RMK A01 T01450065  RH  059%=      5-min Rain = 0
KBY1 181132Z 26004KT 14/07 A2975 RMK A01 T01440065  RH  059%=      5-min Rain = 0
KBY1 181133Z 26005KT 14/07 A2975 RMK A01 T01430065  RH  059%=      5-min Rain = 0
KBY1 181134Z 26005KT 14/07 A2975 RMK A01 T01420065  RH  060%=      5-min Rain = 0
KBY1 181135Z 25006KT 14/07 A2975 RMK A01 T01410065  RH  060%=      5-min Rain = 0
KBY1 181136Z 24006KT 14/07 A2975 RMK A01 T01400066  RH  061%=      5-min Rain = 0
KBY1 181137Z 24007KT 14/07 A2975 RMK A01 T01410066  RH  061%=      5-min Rain = 0
KBY1 181138Z 24006KT 14/07 A2975 RMK A01 T01420067  RH  061%=      5-min Rain = 0
KBY1 181139Z 25005KT 14/07 A2975 RMK A01 T01430067  RH  060%=      5-min Rain = 0
KBY1 181140Z 24005KT 14/07 A2975 RMK A01 T01430067  RH  060%=      5-min Rain = 0
KBY1 181141Z 23007KT 14/07 A2975 RMK A01 T01420067  RH  060%=      5-min Rain = 0
KBY1 181142Z 24008KT 14/07 A2975 RMK A01 T01420067  RH  061%=      5-min Rain = 0
KBY1 181143Z 24005KT 14/07 A2975 RMK A01 T01430067  RH  060%=      5-min Rain = 0
KBY1 181144Z 24006KT 14/07 A2975 RMK A01 T01430067  RH  060%=      5-min Rain = 0
KBY1 181145Z 24006KT 14/07 A2975 RMK A01 T01430067  RH  060%=      5-min Rain = 0
KBY1 181146Z 24004KT 14/07 A2975 RMK A01 T01430067  RH  060%=      5-min Rain = 0
KBY1 181147Z 25005KT 14/07 A2975 RMK A01 T01430067  RH  060%=      5-min Rain = 0
KBY1 181148Z 25005KT 14/07 A2975 RMK A01 T01420068  RH  061%=      5-min Rain = 0
KBY1 181149Z 25005KT 14/07 A2975 RMK A01 T01410068  RH  061%=      5-min Rain = 0
KBY1 181150Z 26004KT 14/07 A2975 RMK A01 T01400067  RH  062%=      5-min Rain = 0
KBY1 181151Z 26003KT 14/07 A2975 RMK A01 T01390068  RH  062%=      5-min Rain = 0
KBY1 181152Z 25004KT 14/07 A2975 RMK A01 T01390068  RH  062%=      5-min Rain = 0
KBY1 181153Z 23004KT 14/07 A2975 RMK A01 T01390068  RH  062%=      5-min Rain = 0
KBY1 181154Z 23004KT 14/07 A2975 RMK A01 T01390067  RH  062%=      5-min Rain = 0
KBY1 181155Z 24005KT 14/07 A2975 RMK A01 T01390068  RH  062%=      5-min Rain = 0
KBY1 181156Z 26004KT 14/07 A2975 RMK A01 T01390068  RH  062%=      5-min Rain = 0
KBY1 181157Z 26004KT 14/07 A2975 RMK A01 T01390068  RH  062%=      5-min Rain = 0
KBY1 181158Z 27003KT 14/07 A2975 RMK A01 T01380068  RH  063%=      5-min Rain = 0
KBY1 181159Z 28003KT 14/07 A2975 RMK A01 T01380068  RH  063%=      5-min Rain = 0
KBY1 181200Z 25002KT 14/07 A2975 RMK A01 T01370068  RH  063%=      5-min Rain = 0
KBY1 181201Z 31001KT 14/07 A2975 RMK A01 T01360068  RH  063%=      5-min Rain = 0
KBY1 181202Z 31002KT 14/07 A2975 RMK A01 T01380068  RH  063%=      5-min Rain = 0
KBY1 181203Z 29002KT 14/07 A2975 RMK A01 T01380067  RH  062%=      5-min Rain = 0
KBY1 181204Z 30003KT 14/07 A2975 RMK A01 T01380067  RH  062%=      5-min Rain = 0
KBY1 181205Z 30004KT 14/07 A2975 RMK A01 T01370067  RH  063%=      5-min Rain = 0
KBY1 181206Z 29003KT 14/07 A2975 RMK A01 T01350066  RH  063%=      5-min Rain = 0
KBY1 181207Z 29004KT 13/07 A2975 RMK A01 T01340067  RH  063%=      5-min Rain = 0
KBY1 181208Z 29004KT 13/07 A2975 RMK A01 T01340067  RH  064%=      5-min Rain = 0
KBY1 181209Z 28003KT 13/07 A2975 RMK A01 T01340068  RH  064%=      5-min Rain = 0
KBY1 181210Z 28004KT 13/07 A2975 RMK A01 T01340068  RH  064%=      5-min Rain = 0
KBY1 181211Z 29004KT 14/07 A2975 RMK A01 T01360068  RH  064%=      5-min Rain = 0
KBY1 181212Z 28004KT 14/07 A2975 RMK A01 T01360068  RH  063%=      5-min Rain = 0
KBY1 181213Z 29004KT 14/07 A2975 RMK A01 T01370069  RH  063%=      5-min Rain = 0
KBY1 181214Z 29004KT 14/07 A2975 RMK A01 T01380069  RH  063%=      5-min Rain = 0
KBY1 181215Z 28004KT 14/07 A2975 RMK A01 T01380069  RH  063%=      5-min Rain = 0
KBY1 181216Z 28004KT 14/07 A2975 RMK A01 T01380069  RH  063%=      5-min Rain = 0
KBY1 181217Z 27004KT 14/07 A2975 RMK A01 T01380069  RH  063%=      5-min Rain = 0
KBY1 181218Z 28004KT 14/07 A2975 RMK A01 T01370069  RH  063%=      5-min Rain = 0
KBY1 181219Z 28004KT 14/07 A2975 RMK A01 T01380069  RH  063%=      5-min Rain = 0
KBY1 181220Z 28003KT 14/07 A2975 RMK A01 T01370069  RH  063%=      5-min Rain = 0
KBY1 181221Z 28004KT 14/07 A2975 RMK A01 T01360069  RH  064%=      5-min Rain = 0
KBY1 181222Z 28004KT 14/07 A2975 RMK A01 T01360069  RH  064%=      5-min Rain = 0
KBY1 181223Z 27004KT 14/07 A2975 RMK A01 T01360069  RH  064%=      5-min Rain = 0
KBY1 181224Z 27004KT 14/07 A2975 RMK A01 T01360069  RH  064%=      5-min Rain = 0
KBY1 181225Z 28004KT 14/07 A2975 RMK A01 T01360069  RH  064%=      5-min Rain = 0
KBY1 181226Z 28004KT 14/07 A2975 RMK A01 T01360070  RH  064%=      5-min Rain = 0
KBY1 181227Z 28003KT 14/07 A2975 RMK A01 T01360070  RH  064%=      5-min Rain = 0
KBY1 181228Z 29004KT 14/07 A2975 RMK A01 T01360069  RH  064%=      5-min Rain = 0
KBY1 181229Z 29004KT 14/07 A2975 RMK A01 T01360069  RH  064%=      5-min Rain = 0
KBY1 181230Z 29003KT 14/07 A2975 RMK A01 T01360069  RH  064%=      5-min Rain = 0
KBY1 181231Z 28003KT 13/07 A2975 RMK A01 T01340069  RH  065%=      5-min Rain = 0
KBY1 181232Z 29003KT 13/07 A2975 RMK A01 T01320069  RH  065%=      5-min Rain = 0
KBY1 181233Z 29003KT 13/07 A2975 RMK A01 T01330070  RH  066%=      5-min Rain = 0
KBY1 181234Z 27003KT 13/07 A2975 RMK A01 T01320069  RH  066%=      5-min Rain = 0
KBY1 181235Z 27003KT 13/07 A2975 RMK A01 T01330070  RH  066%=      5-min Rain = 0
KBY1 181236Z 27003KT 13/07 A2975 RMK A01 T01330070  RH  065%=      5-min Rain = 0
KBY1 181237Z 27002KT 13/07 A2975 RMK A01 T01330069  RH  065%=      5-min Rain = 0
KBY1 181238Z 28003KT 13/07 A2975 RMK A01 T01320069  RH  066%=      5-min Rain = 0
KBY1 181239Z 27001KT 13/07 A2975 RMK A01 T01290066  RH  066%=      5-min Rain = 0
KBY1 181240Z 29001KT 13/07 A2975 RMK A01 T01270066  RH  066%=      5-min Rain = 0
KBY1 181241Z 28000KT 13/07 A2975 RMK A01 T01250065  RH  067%=      5-min Rain = 0
KBY1 181242Z 25001KT 12/07 A2975 RMK A01 T01230066  RH  068%=      5-min Rain = 0
KBY1 181243Z 26002KT 12/07 A2975 RMK A01 T01210066  RH  069%=      5-min Rain = 0
KBY1 181244Z 25002KT 12/07 A2975 RMK A01 T01200066  RH  069%=      5-min Rain = 0
KBY1 181245Z 23001KT 12/07 A2975 RMK A01 T01200066  RH  070%=      5-min Rain = 0
KBY1 181246Z 26001KT 12/07 A2975 RMK A01 T01190066  RH  070%=      5-min Rain = 0
KBY1 181247Z 24002KT 12/07 A2975 RMK A01 T01180067  RH  071%=      5-min Rain = 0
KBY1 181248Z 21001KT 12/07 A2975 RMK A01 T01180067  RH  071%=      5-min Rain = 0
KBY1 181249Z 21001KT 12/07 A2975 RMK A01 T01180067  RH  071%=      5-min Rain = 0
KBY1 181250Z 19001KT 12/07 A2975 RMK A01 T01180067  RH  071%=      5-min Rain = 0
KBY1 181251Z 22001KT 12/07 A2975 RMK A01 T01170066  RH  071%=      5-min Rain = 0
KBY1 181252Z 27000KT 12/07 A2975 RMK A01 T01160067  RH  072%=      5-min Rain = 0
KBY1 181253Z 21002KT 12/07 A2975 RMK A01 T01160067  RH  072%=      5-min Rain = 0
KBY1 181254Z 19001KT 12/07 A2975 RMK A01 T01160068  RH  072%=      5-min Rain = 0
KBY1 181255Z 20001KT 12/07 A2975 RMK A01 T01170068  RH  072%=      5-min Rain = 0
KBY1 181256Z 18001KT 12/07 A2975 RMK A01 T01180068  RH  072%=      5-min Rain = 0
KBY1 181257Z 18001KT 12/07 A2975 RMK A01 T01180069  RH  071%=      5-min Rain = 0
KBY1 181258Z 19001KT 12/07 A2975 RMK A01 T01190069  RH  071%=      5-min Rain = 0
KBY1 181259Z 17001KT 12/07 A2975 RMK A01 T01200068  RH  071%=      5-min Rain = 0
KBY1 181300Z 17001KT 12/07 A2975 RMK A01 T01200068  RH  070%=      5-min Rain = 0
KBY1 181301Z 17000KT 12/07 A2975 RMK A01 T01190067  RH  070%=      5-min Rain = 0
KBY1 181302Z 19000KT 12/07 A2975 RMK A01 T01190069  RH  071%=      5-min Rain = 0
KBY1 181303Z 18001KT 12/07 A2975 RMK A01 T01190069  RH  071%=      5-min Rain = 0
KBY1 181304Z 17001KT 12/07 A2975 RMK A01 T01190069  RH  071%=      5-min Rain = 0
KBY1 181305Z 14001KT 12/07 A2975 RMK A01 T01190069  RH  071%=      5-min Rain = 0
KBY1 181306Z 16001KT 12/07 A2975 RMK A01 T01190069  RH  071%=      5-min Rain = 0
KBY1 181307Z 13001KT 12/07 A2975 RMK A01 T01190069  RH  071%=      5-min Rain = 0
KBY1 181308Z 13001KT 12/07 A2975 RMK A01 T01190068  RH  071%=      5-min Rain = 0
KBY1 181309Z 14001KT 12/07 A2975 RMK A01 T01180067  RH  071%=      5-min Rain = 0
KBY1 181310Z 15001KT 12/07 A2975 RMK A01 T01170067  RH  071%=      5-min Rain = 0
KBY1 181311Z 15002KT 12/07 A2975 RMK A01 T01170068  RH  072%=      5-min Rain = 0
KBY1 181312Z 15002KT 12/07 A2975 RMK A01 T01170068  RH  072%=      5-min Rain = 0
KBY1 181313Z 18002KT 12/07 A2975 RMK A01 T01160067  RH  072%=      5-min Rain = 0
KBY1 181314Z 18003KT 12/07 A2975 RMK A01 T01160068  RH  072%=      5-min Rain = 0
KBY1 181315Z 19004KT 12/07 A2975 RMK A01 T01150068  RH  073%=      5-min Rain = 0
KBY1 181316Z 19004KT 12/07 A2975 RMK A01 T01160068  RH  072%=      5-min Rain = 0
KBY1 181317Z 20006KT 12/07 A2975 RMK A01 T01170068  RH  072%=      5-min Rain = 0
KBY1 181318Z 20006KT 12/07 A2975 RMK A01 T01180069  RH  072%=      5-min Rain = 0
KBY1 181319Z 20007KT 12/07 A2975 RMK A01 T01180070  RH  072%=      5-min Rain = 0
KBY1 181320Z 20007KT 12/07 A2975 RMK A01 T01220073  RH  072%=      5-min Rain = 0
KBY1 181321Z 19005KT 13/08 A2975 RMK A01 T01270075  RH  071%=      5-min Rain = 0
KBY1 181322Z 20005KT 13/08 A2975 RMK A01 T01290075  RH  070%=      5-min Rain = 0
KBY1 181323Z 19005KT 13/08 A2975 RMK A01 T01300075  RH  069%=      5-min Rain = 0
KBY1 181324Z 19006KT 13/08 A2975 RMK A01 T01320075  RH  068%=      5-min Rain = 0
KBY1 181325Z 19007KT 13/08 A2975 RMK A01 T01330076  RH  068%=      5-min Rain = 0
KBY1 181326Z 20007KT 13/08 A2975 RMK A01 T01340076  RH  068%=      5-min Rain = 0
KBY1 181327Z 19008KT 14/08 A2975 RMK A01 T01360076  RH  067%=      5-min Rain = 0
KBY1 181328Z 19008KT 14/08 A2975 RMK A01 T01370075  RH  066%=      5-min Rain = 0
KBY1 181329Z 20007KT 14/08 A2975 RMK A01 T01380075  RH  066%=      5-min Rain = 0
KBY1 181330Z 20007KT 14/08 A2975 RMK A01 T01380075  RH  066%=      5-min Rain = 0
KBY1 181331Z 20007KT 14/08 A2975 RMK A01 T01380075  RH  066%=      5-min Rain = 0
KBY1 181332Z 19008KT 14/08 A2975 RMK A01 T01390075  RH  065%=      5-min Rain = 0
KBY1 181333Z 20007KT 14/08 A2975 RMK A01 T01390075  RH  065%=      5-min Rain = 0
KBY1 181334Z 19007KT 14/08 A2975 RMK A01 T01400075  RH  065%=      5-min Rain = 0
KBY1 181335Z 20007KT 14/08 A2975 RMK A01 T01400076  RH  065%=      5-min Rain = 0
KBY1 181336Z 20006KT 14/08 A2975 RMK A01 T01400075  RH  065%=      5-min Rain = 0
KBY1 181337Z 20007KT 14/08 A2975 RMK A01 T01410076  RH  065%=      5-min Rain = 0
KBY1 181338Z 20007KT 14/08 A2975 RMK A01 T01410075  RH  065%=      5-min Rain = 0
KBY1 181339Z 19007KT 14/08 A2975 RMK A01 T01410076  RH  065%=      5-min Rain = 0
KBY1 181340Z 19007KT 14/08 A2975 RMK A01 T01420076  RH  065%=      5-min Rain = 0
KBY1 181341Z 19007KT 14/08 A2975 RMK A01 T01420076  RH  065%=      5-min Rain = 0
KBY1 181342Z 20008KT 14/08 A2975 RMK A01 T01420076  RH  065%=      5-min Rain = 0
KBY1 181343Z 19007KT 14/08 A2975 RMK A01 T01420076  RH  064%=      5-min Rain = 0
KBY1 181344Z 19007KT 14/08 A2975 RMK A01 T01430076  RH  064%=      5-min Rain = 0
KBY1 181345Z 19007KT 14/08 A2975 RMK A01 T01430076  RH  064%=      5-min Rain = 0
KBY1 181346Z 20007KT 14/08 A2975 RMK A01 T01440076  RH  064%=      5-min Rain = 0
KBY1 181347Z 20007KT 14/08 A2975 RMK A01 T01440076  RH  064%=      5-min Rain = 0
KBY1 181348Z 20007KT 14/08 A2975 RMK A01 T01440076  RH  064%=      5-min Rain = 0
KBY1 181349Z 20008KT 15/08 A2975 RMK A01 T01450076  RH  063%=      5-min Rain = 0
KBY1 181350Z 19007KT 15/08 A2975 RMK A01 T01450077  RH  063%=      5-min Rain = 0
KBY1 181351Z 19007KT 15/08 A2975 RMK A01 T01460077  RH  063%=      5-min Rain = 0
KBY1 181352Z 20007KT 15/08 A2975 RMK A01 T01460077  RH  063%=      5-min Rain = 0
KBY1 181353Z 19008KT 15/08 A2975 RMK A01 T01470078  RH  063%=      5-min Rain = 0
KBY1 181354Z 19007KT 15/08 A2975 RMK A01 T01470077  RH  063%=      5-min Rain = 0
KBY1 181355Z 20007KT 15/08 A2975 RMK A01 T01480078  RH  063%=      5-min Rain = 0
KBY1 181356Z 20006KT 15/08 A2975 RMK A01 T01480078  RH  063%=      5-min Rain = 0
KBY1 181357Z 19005KT 15/08 A2975 RMK A01 T01490078  RH  063%=      5-min Rain = 0
KBY1 181358Z 19006KT 15/08 A2975 RMK A01 T01500079  RH  062%=      5-min Rain = 0
KBY1 181359Z 19007KT 15/08 A2975 RMK A01 T01510079  RH  062%=      5-min Rain = 0
KBY1 181400Z 19007KT 15/08 A2975 RMK A01 T01520078  RH  062%=      5-min Rain = 0
KBY1 181401Z 20006KT 15/08 A2975 RMK A01 T01520078  RH  061%=      5-min Rain = 0
KBY1 181402Z 19005KT 15/08 A2975 RMK A01 T01530078  RH  061%=      5-min Rain = 0
KBY1 181403Z 20006KT 15/08 A2975 RMK A01 T01540077  RH  060%=      5-min Rain = 0
KBY1 181404Z 20006KT 16/08 A2975 RMK A01 T01550078  RH  060%=      5-min Rain = 0
KBY1 181405Z 21005KT 16/08 A2975 RMK A01 T01550078  RH  060%=      5-min Rain = 0
KBY1 181406Z 20005KT 16/08 A2975 RMK A01 T01560079  RH  060%=      5-min Rain = 0
KBY1 181407Z 20005KT 16/08 A2975 RMK A01 T01570078  RH  060%=      5-min Rain = 0
KBY1 181408Z 19005KT 16/08 A2975 RMK A01 T01570078  RH  059%=      5-min Rain = 0
KBY1 181409Z 19005KT 16/08 A2975 RMK A01 T01580079  RH  059%=      5-min Rain = 0
KBY1 181410Z 20007KT 16/08 A2975 RMK A01 T01590079  RH  059%=      5-min Rain = 0
KBY1 181411Z 21005KT 16/08 A2975 RMK A01 T01600078  RH  058%=      5-min Rain = 0
KBY1 181412Z 20004KT 16/08 A2975 RMK A01 T01600078  RH  058%=      5-min Rain = 0
KBY1 181413Z 19005KT 16/08 A2975 RMK A01 T01600079  RH  059%=      5-min Rain = 0
KBY1 181414Z 22004KT 16/08 A2975 RMK A01 T01610078  RH  058%=      5-min Rain = 0
KBY1 181415Z 21004KT 16/08 A2975 RMK A01 T01620079  RH  058%=      5-min Rain = 0
KBY1 181416Z 19005KT 16/08 A2975 RMK A01 T01630079  RH  058%=      5-min Rain = 0
KBY1 181417Z 19005KT 16/08 A2975 RMK A01 T01630079  RH  058%=      5-min Rain = 0
KBY1 181418Z 22007KT 17/08 A2975 RMK A01 T01650080  RH  057%=      5-min Rain = 0
KBY1 181419Z 22006KT 16/08 A2975 RMK A01 T01640078  RH  057%=      5-min Rain = 0
KBY1 181420Z 21005KT 17/08 A2975 RMK A01 T01650079  RH  057%=      5-min Rain = 0
KBY1 181421Z 20004KT 17/08 A2975 RMK A01 T01650080  RH  057%=      5-min Rain = 0
KBY1 181422Z 19004KT 17/08 A2975 RMK A01 T01660080  RH  057%=      5-min Rain = 0
KBY1 181423Z 21006KT 17/08 A2975 RMK A01 T01660080  RH  057%=      5-min Rain = 0
KBY1 181424Z 21004KT 17/08 A2975 RMK A01 T01670080  RH  056%=      5-min Rain = 0
KBY1 181425Z 23005KT 17/08 A2975 RMK A01 T01680080  RH  056%=      5-min Rain = 0
KBY1 181426Z 23006KT 17/08 A2975 RMK A01 T01690080  RH  056%=      5-min Rain = 0
KBY1 181427Z 22005KT 17/08 A2975 RMK A01 T01690081  RH  056%=      5-min Rain = 0
KBY1 181428Z 21006KT 17/08 A2975 RMK A01 T01710081  RH  055%=      5-min Rain = 0
KBY1 181429Z 20005KT 17/08 A2975 RMK A01 T01710080  RH  055%=      5-min Rain = 0
KBY1 181430Z 21006KT 17/08 A2975 RMK A01 T01720081  RH  055%=      5-min Rain = 0
KBY1 181431Z 21006KT 17/08 A2975 RMK A01 T01730082  RH  055%=      5-min Rain = 0
KBY1 181432Z 21006KT 17/08 A2975 RMK A01 T01740081  RH  054%=      5-min Rain = 0
KBY1 181433Z 22005KT 18/08 A2975 RMK A01 T01750081  RH  054%=      5-min Rain = 0
KBY1 181434Z 21006KT 18/08 A2975 RMK A01 T01750081  RH  054%=      5-min Rain = 0
KBY1 181435Z 20005KT 18/08 A2975 RMK A01 T01750081  RH  054%=      5-min Rain = 0
KBY1 181436Z 21005KT 18/08 A2975 RMK A01 T01770082  RH  054%=      5-min Rain = 0
KBY1 181437Z 22006KT 18/08 A2975 RMK A01 T01790082  RH  053%=      5-min Rain = 0
KBY1 181438Z 21005KT 18/08 A2975 RMK A01 T01800082  RH  053%=      5-min Rain = 0
KBY1 181439Z 22004KT 18/08 A2975 RMK A01 T01800082  RH  052%=      5-min Rain = 0
KBY1 181440Z 21005KT 18/08 A2975 RMK A01 T01810082  RH  052%=      5-min Rain = 0
KBY1 181441Z 20005KT 18/08 A2975 RMK A01 T01810083  RH  053%=      5-min Rain = 0
KBY1 181442Z 22005KT 18/08 A2975 RMK A01 T01820083  RH  052%=      5-min Rain = 0
KBY1 181443Z 22005KT 18/08 A2975 RMK A01 T01830082  RH  052%=      5-min Rain = 0
KBY1 181444Z 21005KT 18/08 A2975 RMK A01 T01820081  RH  052%=      5-min Rain = 0
KBY1 181445Z 25003KT 18/08 A2975 RMK A01 T01820083  RH  052%=      5-min Rain = 0
KBY1 181446Z 20005KT 18/08 A2975 RMK A01 T01830082  RH  052%=      5-min Rain = 0
KBY1 181447Z 20005KT 18/08 A2975 RMK A01 T01840082  RH  051%=      5-min Rain = 0
KBY1 181448Z 21005KT 18/08 A2975 RMK A01 T01840083  RH  052%=      5-min Rain = 0
KBY1 181449Z 22006KT 19/08 A2975 RMK A01 T01860084  RH  052%=      5-min Rain = 0
KBY1 181450Z 21005KT 19/08 A2975 RMK A01 T01870082  RH  051%=      5-min Rain = 0
KBY1 181451Z 24006KT 19/08 A2975 RMK A01 T01870083  RH  051%=      5-min Rain = 0
KBY1 181452Z 21005KT 19/08 A2975 RMK A01 T01860083  RH  051%=      5-min Rain = 0
KBY1 181453Z 20005KT 19/09 A2975 RMK A01 T01870085  RH  051%=      5-min Rain = 0
KBY1 181454Z 21005KT 19/08 A2975 RMK A01 T01880084  RH  051%=      5-min Rain = 0
KBY1 181455Z 23007KT 19/08 A2974 RMK A01 T01890084  RH  050%=      5-min Rain = 0
KBY1 181456Z 22006KT 19/08 A2974 RMK A01 T01890083  RH  050%=      5-min Rain = 0
KBY1 181457Z 22008KT 19/08 A2974 RMK A01 T01890083  RH  050%=      5-min Rain = 0
KBY1 181458Z 20006KT 19/08 A2974 RMK A01 T01890083  RH  050%=      5-min Rain = 0
KBY1 181459Z 21008KT 19/08 A2974 RMK A01 T01880083  RH  050%=      5-min Rain = 0
KBY1 181500Z 22007KT 19/08 A2974 RMK A01 T01890083  RH  050%=      5-min Rain = 0
KBY1 181501Z 21007KT 19/08 A2974 RMK A01 T01900083  RH  050%=      5-min Rain = 0
KBY1 181502Z 21008KT 19/08 A2974 RMK A01 T01910084  RH  050%=      5-min Rain = 0
KBY1 181503Z 22009KT 19/08 A2974 RMK A01 T01910083  RH  050%=      5-min Rain = 0
KBY1 181504Z 21007KT 19/08 A2974 RMK A01 T01910084  RH  050%=      5-min Rain = 0
KBY1 181505Z 21008KT 19/09 A2974 RMK A01 T01920085  RH  050%=      5-min Rain = 0
KBY1 181506Z 20006KT 19/09 A2974 RMK A01 T01940085  RH  049%=      5-min Rain = 0
KBY1 181507Z 20006KT 20/09 A2974 RMK A01 T01960085  RH  049%=      5-min Rain = 0
KBY1 181508Z 21005KT 20/09 A2974 RMK A01 T01970086  RH  049%=      5-min Rain = 0
KBY1 181509Z 21006KT 20/09 A2974 RMK A01 T01980085  RH  048%=      5-min Rain = 0
KBY1 181510Z 21005KT 20/09 A2974 RMK A01 T01980085  RH  048%=      5-min Rain = 0
KBY1 181511Z 20005KT 20/09 A2974 RMK A01 T01980086  RH  048%=      5-min Rain = 0
KBY1 181512Z 21005KT 20/09 A2974 RMK A01 T01980086  RH  048%=      5-min Rain = 0
KBY1 181513Z 20003KT 20/09 A2974 RMK A01 T02000087  RH  048%=      5-min Rain = 0
KBY1 181514Z 20004KT 20/09 A2974 RMK A01 T02010087  RH  048%=      5-min Rain = 0
KBY1 181515Z 20007KT 20/09 A2974 RMK A01 T02020086  RH  047%=      5-min Rain = 0
KBY1 181516Z 21006KT 20/09 A2974 RMK A01 T02020085  RH  047%=      5-min Rain = 0
KBY1 181517Z 21005KT 20/09 A2974 RMK A01 T02020086  RH  047%=      5-min Rain = 0
KBY1 181518Z 23005KT 20/09 A2974 RMK A01 T02030087  RH  047%=      5-min Rain = 0
KBY1 181519Z 22007KT 21/09 A2974 RMK A01 T02050086  RH  046%=      5-min Rain = 0
KBY1 181520Z 23007KT 21/09 A2974 RMK A01 T02060086  RH  046%=      5-min Rain = 0
KBY1 181521Z 22008KT 21/09 A2974 RMK A01 T02060086  RH  046%=      5-min Rain = 0
KBY1 181522Z 23006KT 21/09 A2974 RMK A01 T02060086  RH  046%=      5-min Rain = 0
KBY1 181523Z 22007KT 21/09 A2974 RMK A01 T02060086  RH  046%=      5-min Rain = 0
KBY1 181524Z 24008KT 21/09 A2974 RMK A01 T02070087  RH  046%=      5-min Rain = 0
KBY1 181525Z 25008KT 21/09 A2973 RMK A01 T02070086  RH  046%=      5-min Rain = 0
KBY1 181526Z 25007KT 21/09 A2973 RMK A01 T02070089  RH  047%=      5-min Rain = 0
KBY1 181527Z 25007KT 21/09 A2973 RMK A01 T02080088  RH  046%=      5-min Rain = 0
KBY1 181528Z 26008KT 21/09 A2973 RMK A01 T02090087  RH  046%=      5-min Rain = 0
KBY1 181529Z 25007KT 21/09 A2973 RMK A01 T02080088  RH  046%=      5-min Rain = 0
KBY1 181530Z 26008KT 21/09 A2973 RMK A01 T02090089  RH  046%=      5-min Rain = 0
KBY1 181531Z 24009KT 21/09 A2973 RMK A01 T02100088  RH  046%=      5-min Rain = 0
KBY1 181532Z 24007KT 21/09 A2973 RMK A01 T02110089  RH  045%=      5-min Rain = 0
KBY1 181533Z 25008KT 21/09 A2973 RMK A01 T02110088  RH  045%=      5-min Rain = 0
KBY1 181534Z 25005KT 21/09 A2973 RMK A01 T02110090  RH  046%=      5-min Rain = 0
KBY1 181535Z 25005KT 21/09 A2973 RMK A01 T02130091  RH  046%=      5-min Rain = 0
KBY1 181536Z 25007KT 21/09 A2973 RMK A01 T02140090  RH  045%=      5-min Rain = 0
KBY1 181537Z 24005KT 22/09 A2973 RMK A01 T02150089  RH  044%=      5-min Rain = 0
KBY1 181538Z 24008KT 22/09 A2973 RMK A01 T02160089  RH  044%=      5-min Rain = 0
KBY1 181539Z 24008KT 22/09 A2973 RMK A01 T02160089  RH  044%=      5-min Rain = 0
KBY1 181540Z 25010KT 22/09 A2972 RMK A01 T02180089  RH  044%=      5-min Rain = 0
KBY1 181541Z 25009KT 22/09 A2972 RMK A01 T02180088  RH  043%=      5-min Rain = 0
KBY1 181542Z 23008KT 22/09 A2972 RMK A01 T02170089  RH  044%=      5-min Rain = 0
KBY1 181543Z 25012KT 22/09 A2972 RMK A01 T02190089  RH  044%=      5-min Rain = 0
KBY1 181544Z 23011KT 22/09 A2972 RMK A01 T02190088  RH  043%=      5-min Rain = 0
KBY1 181545Z 24010KT 22/09 A2972 RMK A01 T02190088  RH  043%=      5-min Rain = 0
KBY1 181546Z 25008KT 22/09 A2972 RMK A01 T02190089  RH  043%=      5-min Rain = 0
KBY1 181547Z 25010KT 22/09 A2972 RMK A01 T02190089  RH  043%=      5-min Rain = 0
KBY1 181548Z 25009KT 22/09 A2972 RMK A01 T02200089  RH  043%=      5-min Rain = 0
KBY1 181549Z 23011KT 22/09 A2972 RMK A01 T02200089  RH  043%=      5-min Rain = 0
KBY1 181550Z 23012KT 22/09 A2972 RMK A01 T02210089  RH  043%=      5-min Rain = 0
KBY1 181551Z 23010KT 22/09 A2972 RMK A01 T02200087  RH  043%=      5-min Rain = 0
KBY1 181552Z 22009KT 22/09 A2972 RMK A01 T02200089  RH  043%=      5-min Rain = 0
KBY1 181553Z 22009KT 22/09 A2972 RMK A01 T02230090  RH  043%=      5-min Rain = 0
KBY1 181554Z 23009KT 22/09 A2972 RMK A01 T02230089  RH  042%=      5-min Rain = 0
KBY1 181555Z 24009KT 22/09 A2972 RMK A01 T02230090  RH  042%=      5-min Rain = 0
KBY1 181556Z 25010KT 22/09 A2972 RMK A01 T02240089  RH  042%=      5-min Rain = 0
KBY1 181557Z 25010KT 22/09 A2972 RMK A01 T02240088  RH  042%=      5-min Rain = 0
KBY1 181558Z 23008KT 23/09 A2972 RMK A01 T02250088  RH  042%=      5-min Rain = 0
KBY1 181559Z 24007KT 23/09 A2971 RMK A01 T02260091  RH  042%=      5-min Rain = 0
KBY1 181600Z 24011KT 23/09 A2971 RMK A01 T02290089  RH  041%=      5-min Rain = 0
KBY1 181601Z 23011KT 23/09 A2971 RMK A01 T02290089  RH  041%=      5-min Rain = 0
KBY1 181602Z 23008KT 23/09 A2971 RMK A01 T02270088  RH  041%=      5-min Rain = 0
KBY1 181603Z 23008KT 23/09 A2971 RMK A01 T02260089  RH  041%=      5-min Rain = 0
KBY1 181604Z 26007KT 23/09 A2971 RMK A01 T02280092  RH  042%=      5-min Rain = 0
KBY1 181605Z 25009KT 23/09 A2971 RMK A01 T02320091  RH  041%=      5-min Rain = 0
KBY1 181606Z 24008KT 23/09 A2971 RMK A01 T02330091  RH  040%=      5-min Rain = 0
KBY1 181607Z 23012KT 23/09 A2971 RMK A01 T02320090  RH  040%=      5-min Rain = 0
KBY1 181608Z 24009KT 23/09 A2971 RMK A01 T02320090  RH  040%=      5-min Rain = 0
KBY1 181609Z 24009KT 23/09 A2971 RMK A01 T02320090  RH  040%=      5-min Rain = 0
KBY1 181610Z 25009KT 23/09 A2971 RMK A01 T02310091  RH  041%=      5-min Rain = 0
KBY1 181611Z 25009KT 23/09 A2971 RMK A01 T02310090  RH  041%=      5-min Rain = 0
KBY1 181612Z 24010KT 23/09 A2971 RMK A01 T02310091  RH  041%=      5-min Rain = 0
KBY1 181613Z 23013KT 23/09 A2971 RMK A01 T02320091  RH  041%=      5-min Rain = 0
KBY1 181614Z 22010KT 23/09 A2971 RMK A01 T02320089  RH  040%=      5-min Rain = 0
KBY1 181615Z 23011KT 23/09 A2971 RMK A01 T02310089  RH  040%=      5-min Rain = 0
KBY1 181616Z 23013KT 23/09 A2971 RMK A01 T02310090  RH  040%=      5-min Rain = 0
KBY1 181617Z 23010KT 23/09 A2971 RMK A01 T02320091  RH  041%=      5-min Rain = 0
KBY1 181618Z 23011KT 24/09 A2971 RMK A01 T02350091  RH  040%=      5-min Rain = 0
KBY1 181619Z 22010KT 24/09 A2971 RMK A01 T02350091  RH  040%=      5-min Rain = 0
KBY1 181620Z 21012KT 24/09 A297 RMK A01 T02350091  RH  040%=      5-min Rain = 0
KBY1 181621Z 22014KT 24/09 A297 RMK A01 T02350091  RH  040%=      5-min Rain = 0
KBY1 181622Z 23012KT 24/09 A297 RMK A01 T02350091  RH  040%=      5-min Rain = 0
KBY1 181623Z 23013KT 24/09 A297 RMK A01 T02350091  RH  040%=      5-min Rain = 0
KBY1 181624Z 22013KT 24/09 A297 RMK A01 T02350092  RH  040%=      5-min Rain = 0
KBY1 181625Z 23012KT 24/09 A297 RMK A01 T02370092  RH  040%=      5-min Rain = 0
KBY1 181626Z 23013KT 24/09 A297 RMK A01 T02370092  RH  040%=      5-min Rain = 0
KBY1 181627Z 24011KT 24/09 A297 RMK A01 T02370092  RH  040%=      5-min Rain = 0
KBY1 181628Z 24011KT 24/09 A297 RMK A01 T02370093  RH  040%=      5-min Rain = 0
KBY1 181629Z 23012KT 24/09 A297 RMK A01 T02380093  RH  040%=      5-min Rain = 0
KBY1 181630Z 23012KT 24/09 A297 RMK A01 T02410094  RH  039%=      5-min Rain = 0
KBY1 181631Z 24012KT 24/09 A297 RMK A01 T02420094  RH  039%=      5-min Rain = 0
KBY1 181632Z 24013KT 24/09 A297 RMK A01 T02430093  RH  039%=      5-min Rain = 0
KBY1 181633Z 24011KT 24/09 A297 RMK A01 T02420093  RH  039%=      5-min Rain = 0
KBY1 181634Z 23011KT 24/10 A297 RMK A01 T02430095  RH  039%=      5-min Rain = 0
KBY1 181635Z 23011KT 24/09 A297 RMK A01 T02440093  RH  038%=      5-min Rain = 0
KBY1 181636Z 23008KT 24/09 A297 RMK A01 T02440094  RH  039%=      5-min Rain = 0
KBY1 181637Z 23011KT 25/10 A2969 RMK A01 T02450095  RH  039%=      5-min Rain = 0
KBY1 181638Z 22012KT 25/09 A2969 RMK A01 T02460094  RH  038%=      5-min Rain = 0
KBY1 181639Z 23012KT 25/10 A2969 RMK A01 T02470095  RH  038%=      5-min Rain = 0
KBY1 181640Z 22009KT 25/10 A2969 RMK A01 T02470095  RH  038%=      5-min Rain = 0
KBY1 181641Z 23013G19KT 25/10 A2969 RMK A01 T02490095  RH  038%=      5-min Rain = 0
KBY1 181642Z 24015KT 25/09 A2969 RMK A01 T02490094  RH  038%=      5-min Rain = 0
KBY1 181643Z 24014KT 25/10 A2969 RMK A01 T02490095  RH  038%=      5-min Rain = 0
KBY1 181644Z 23012KT 25/10 A2969 RMK A01 T02490095  RH  038%=      5-min Rain = 0
KBY1 181645Z 23011KT 25/10 A2969 RMK A01 T02480095  RH  038%=      5-min Rain = 0
KBY1 181646Z 24014KT 25/10 A2969 RMK A01 T02480095  RH  038%=      5-min Rain = 0
KBY1 181647Z 23009KT 25/10 A2969 RMK A01 T02490096  RH  038%=      5-min Rain = 0
KBY1 181648Z 23010KT 25/10 A2969 RMK A01 T02520098  RH  038%=      5-min Rain = 0
KBY1 181649Z 23009KT 26/10 A2969 RMK A01 T02550099  RH  037%=      5-min Rain = 0
KBY1 181650Z 22011KT 26/10 A2969 RMK A01 T02580098  RH  037%=      5-min Rain = 0
KBY1 181651Z 23009KT 26/10 A2968 RMK A01 T02590099  RH  036%=      5-min Rain = 0
KBY1 181652Z 22007KT 26/10 A2968 RMK A01 T02600101  RH  037%=      5-min Rain = 0
KBY1 181653Z 23015KT 26/10 A2968 RMK A01 T02640101  RH  036%=      5-min Rain = 0
KBY1 181654Z 23011KT 26/10 A2968 RMK A01 T02620098  RH  036%=      5-min Rain = 0
KBY1 181655Z 24011KT 26/10 A2968 RMK A01 T02600099  RH  036%=      5-min Rain = 0
KBY1 181656Z 23011KT 26/10 A2968 RMK A01 T02600101  RH  037%=      5-min Rain = 0
KBY1 181657Z 23010KT 26/10 A2968 RMK A01 T02600100  RH  036%=      5-min Rain = 0
KBY1 181658Z 23012KT 26/10 A2968 RMK A01 T02620101  RH  036%=      5-min Rain = 0
KBY1 181659Z 22014KT 26/10 A2968 RMK A01 T02620100  RH  036%=      5-min Rain = 0
KBY1 181700Z 22013KT 26/10 A2968 RMK A01 T02620100  RH  036%=      5-min Rain = 0
KBY1 181701Z 23012KT 26/10 A2968 RMK A01 T02630102  RH  036%=      5-min Rain = 0
KBY1 181702Z 23010KT 27/10 A2968 RMK A01 T02660102  RH  036%=      5-min Rain = 0
KBY1 181703Z 24012G18KT 27/10 A2968 RMK A01 T02690102  RH  035%=      5-min Rain = 0
KBY1 181704Z 24014G19KT 27/10 A2968 RMK A01 T02690100  RH  035%=      5-min Rain = 0
KBY1 181705Z 23012G18KT 27/10 A2968 RMK A01 T02690100  RH  035%=      5-min Rain = 0
KBY1 181706Z 23016KT 27/10 A2968 RMK A01 T02700100  RH  034%=      5-min Rain = 0
KBY1 181707Z 24013G18KT 27/10 A2968 RMK A01 T02700098  RH  034%=      5-min Rain = 0
KBY1 181708Z 24012G18KT 27/10 A2968 RMK A01 T02690101  RH  035%=      5-min Rain = 0
KBY1 181709Z 23016G21KT 27/10 A2968 RMK A01 T02710100  RH  034%=      5-min Rain = 0
KBY1 181710Z 24016G22KT 27/10 A2968 RMK A01 T02710100  RH  034%=      5-min Rain = 0
KBY1 181711Z 24015G22KT 27/10 A2968 RMK A01 T02720100  RH  034%=      5-min Rain = 0
KBY1 181712Z 25015KT 27/10 A2968 RMK A01 T02700100  RH  034%=      5-min Rain = 0
KBY1 181713Z 25014KT 27/10 A2968 RMK A01 T02700100  RH  034%=      5-min Rain = 0
KBY1 181714Z 24013KT 27/10 A2968 RMK A01 T02690100  RH  035%=      5-min Rain = 0
KBY1 181715Z 24011G16KT 27/10 A2968 RMK A01 T02700102  RH  035%=      5-min Rain = 0
KBY1 181716Z 23012G17KT 27/10 A2968 RMK A01 T02720102  RH  034%=      5-min Rain = 0
KBY1 181717Z 25009KT 27/10 A2968 RMK A01 T02730103  RH  034%=      5-min Rain = 0
KBY1 181718Z 26013KT 28/11 A2968 RMK A01 T02770105  RH  034%=      5-min Rain = 0
KBY1 181719Z 25015KT 28/10 A2967 RMK A01 T02770103  RH  034%=      5-min Rain = 0
KBY1 181720Z 25016KT 28/10 A2967 RMK A01 T02760102  RH  034%=      5-min Rain = 0
KBY1 181721Z 24015KT 27/10 A2967 RMK A01 T02720101  RH  034%=      5-min Rain = 0
KBY1 181722Z 24014KT 27/10 A2967 RMK A01 T02720102  RH  035%=      5-min Rain = 0
KBY1 181723Z 25013KT 27/10 A2967 RMK A01 T02720103  RH  034%=      5-min Rain = 0
KBY1 181724Z 25013KT 27/10 A2967 RMK A01 T02740103  RH  034%=      5-min Rain = 0
KBY1 181725Z 25013G18KT 28/10 A2967 RMK A01 T02760101  RH  033%=      5-min Rain = 0
KBY1 181726Z 25014KT 28/10 A2967 RMK A01 T02750100  RH  033%=      5-min Rain = 0
KBY1 181727Z 24012KT 27/10 A2967 RMK A01 T02730102  RH  034%=      5-min Rain = 0
KBY1 181728Z 24012KT 28/10 A2967 RMK A01 T02750103  RH  034%=      5-min Rain = 0
KBY1 181729Z 24009KT 28/10 A2967 RMK A01 T02780104  RH  034%=      5-min Rain = 0
KBY1 181730Z 25012G17KT 28/10 A2967 RMK A01 T02810104  RH  033%=      5-min Rain = 0
KBY1 181731Z 25014KT 28/10 A2967 RMK A01 T02810101  RH  033%=      5-min Rain = 0
KBY1 181732Z 25013KT 28/10 A2967 RMK A01 T02770101  RH  033%=      5-min Rain = 0
KBY1 181733Z 24014KT 28/10 A2967 RMK A01 T02760100  RH  033%=      5-min Rain = 0
KBY1 181734Z 24015KT 28/10 A2967 RMK A01 T02760099  RH  033%=      5-min Rain = 0
KBY1 181735Z 25013KT 28/10 A2967 RMK A01 T02760098  RH  033%=      5-min Rain = 0
KBY1 181736Z 25011KT 28/10 A2967 RMK A01 T02760096  RH  032%=      5-min Rain = 0
KBY1 181737Z 26012KT 28/10 A2967 RMK A01 T02770098  RH  033%=      5-min Rain = 0
KBY1 181738Z 25015KT 28/10 A2967 RMK A01 T02770097  RH  032%=      5-min Rain = 0
KBY1 181739Z 24014KT 28/10 A2967 RMK A01 T02760096  RH  032%=      5-min Rain = 0
KBY1 181740Z 25012G17KT 28/09 A2967 RMK A01 T02750094  RH  032%=      5-min Rain = 0
KBY1 181741Z 25014KT 28/10 A2967 RMK A01 T02750095  RH  032%=      5-min Rain = 0
KBY1 181742Z 25015G20KT 28/09 A2967 RMK A01 T02760093  RH  032%=      5-min Rain = 0
KBY1 181743Z 24014G19KT 28/09 A2967 RMK A01 T02760091  RH  031%=      5-min Rain = 0
KBY1 181744Z 24014KT 28/09 A2967 RMK A01 T02760092  RH  032%=      5-min Rain = 0
KBY1 181745Z 24014KT 28/09 A2967 RMK A01 T02770094  RH  032%=      5-min Rain = 0
KBY1 181746Z 25015G21KT 28/09 A2967 RMK A01 T02780093  RH  031%=      5-min Rain = 0
KBY1 181747Z 23018KT 28/09 A2967 RMK A01 T02780092  RH  031%=      5-min Rain = 0
KBY1 181748Z 23012G17KT 28/09 A2967 RMK A01 T02770090  RH  031%=      5-min Rain = 0
KBY1 181749Z 23017G22KT 28/09 A2966 RMK A01 T02790091  RH  031%=      5-min Rain = 0
KBY1 181750Z 23015KT 28/09 A2966 RMK A01 T02790091  RH  031%=      5-min Rain = 0
KBY1 181751Z 24016KT 28/09 A2966 RMK A01 T02780092  RH  031%=      5-min Rain = 0
KBY1 181752Z 24015KT 28/09 A2966 RMK A01 T02780091  RH  031%=      5-min Rain = 0
KBY1 181753Z 25014KT 28/09 A2966 RMK A01 T02780090  RH  031%=      5-min Rain = 0
KBY1 181754Z 25015KT 28/09 A2966 RMK A01 T02790090  RH  031%=      5-min Rain = 0
KBY1 181755Z 24013KT 28/09 A2966 RMK A01 T02780090  RH  031%=      5-min Rain = 0
KBY1 181756Z 23009KT 28/09 A2966 RMK A01 T02790092  RH  031%=      5-min Rain = 0
KBY1 181757Z 23016G21KT 28/09 A2966 RMK A01 T02820092  RH  030%=      5-min Rain = 0
KBY1 181758Z 23017G22KT 28/09 A2966 RMK A01 T02820090  RH  030%=      5-min Rain = 0
KBY1 181759Z 24017KT 28/09 A2966 RMK A01 T02810090  RH  030%=      5-min Rain = 0
KBY1 181800Z 23014G19KT 28/09 A2966 RMK A01 T02810091  RH  030%=      5-min Rain = 0
KBY1 181801Z 24015KT 28/09 A2966 RMK A01 T02820090  RH  030%=      5-min Rain = 0
KBY1 181802Z 24015KT 28/09 A2966 RMK A01 T02830091  RH  030%=      5-min Rain = 0
KBY1 181803Z 25014KT 28/09 A2966 RMK A01 T02830091  RH  030%=      5-min Rain = 0
KBY1 181804Z 25013KT 28/09 A2966 RMK A01 T02830090  RH  030%=      5-min Rain = 0
KBY1 181805Z 24009KT 28/09 A2966 RMK A01 T02830092  RH  030%=      5-min Rain = 0
KBY1 181806Z 24011KT 29/09 A2965 RMK A01 T02850092  RH  030%=      5-min Rain = 0
KBY1 181807Z 25011KT 29/09 A2965 RMK A01 T02870091  RH  029%=      5-min Rain = 0
KBY1 181808Z 26012KT 29/09 A2965 RMK A01 T02880091  RH  029%=      5-min Rain = 0
KBY1 181809Z 26013KT 29/09 A2965 RMK A01 T02870091  RH  029%=      5-min Rain = 0
KBY1 181810Z 25011KT 29/09 A2965 RMK A01 T02850092  RH  030%=      5-min Rain = 0
KBY1 181811Z 24017G23KT 29/09 A2965 RMK A01 T02850086  RH  029%=      5-min Rain = 0
KBY1 181812Z 24015G21KT 28/08 A2965 RMK A01 T02840084  RH  028%=      5-min Rain = 0
KBY1 181813Z 24013G18KT 29/09 A2965 RMK A01 T02850085  RH  029%=      5-min Rain = 0
KBY1 181814Z 24012G17KT 29/09 A2965 RMK A01 T02860085  RH  028%=      5-min Rain = 0
KBY1 181815Z 25014KT 29/09 A2965 RMK A01 T02870085  RH  028%=      5-min Rain = 0
KBY1 181816Z 25013KT 29/08 A2965 RMK A01 T02860084  RH  028%=      5-min Rain = 0
KBY1 181817Z 24013KT 29/09 A2965 RMK A01 T02860086  RH  028%=      5-min Rain = 0
KBY1 181818Z 24015KT 29/08 A2965 RMK A01 T02870082  RH  027%=      5-min Rain = 0
KBY1 181819Z 25013KT 29/08 A2965 RMK A01 T02870084  RH  028%=      5-min Rain = 0
KBY1 181820Z 24011KT 29/09 A2965 RMK A01 T02870085  RH  028%=      5-min Rain = 0
KBY1 181821Z 24013G19KT 29/08 A2965 RMK A01 T02890081  RH  027%=      5-min Rain = 0
KBY1 181822Z 25012KT 29/08 A2965 RMK A01 T02890082  RH  027%=      5-min Rain = 0
KBY1 181823Z 26012KT 29/08 A2965 RMK A01 T02910080  RH  027%=      5-min Rain = 0
KBY1 181824Z 24016G23KT 29/08 A2965 RMK A01 T02900080  RH  027%=      5-min Rain = 0
KBY1 181825Z 24016G22KT 29/08 A2965 RMK A01 T02870075  RH  026%=      5-min Rain = 0
KBY1 181826Z 24016KT 29/08 A2965 RMK A01 T02860076  RH  027%=      5-min Rain = 0
KBY1 181827Z 26011G16KT 29/08 A2965 RMK A01 T02850079  RH  027%=      5-min Rain = 0
KBY1 181828Z 25015KT 29/08 A2965 RMK A01 T02880080  RH  027%=      5-min Rain = 0
KBY1 181829Z 25012KT 29/08 A2965 RMK A01 T02890080  RH  027%=      5-min Rain = 0
KBY1 181830Z 27016G21KT 29/08 A2964 RMK A01 T02900077  RH  026%=      5-min Rain = 0
KBY1 181831Z 26014KT 29/08 A2964 RMK A01 T02880075  RH  026%=      5-min Rain = 0
KBY1 181832Z 24016KT 29/07 A2964 RMK A01 T02880074  RH  026%=      5-min Rain = 0
KBY1 181833Z 24016KT 29/07 A2964 RMK A01 T02890069  RH  025%=      5-min Rain = 0
KBY1 181834Z 26015G21KT 29/07 A2964 RMK A01 T02890068  RH  025%=      5-min Rain = 0
KBY1 181835Z 25015KT 29/07 A2964 RMK A01 T02880070  RH  025%=      5-min Rain = 0
KBY1 181836Z 26015G21KT 29/07 A2964 RMK A01 T02890068  RH  025%=      5-min Rain = 0
KBY1 181837Z 25016KT 29/07 A2964 RMK A01 T02890068  RH  025%=      5-min Rain = 0
KBY1 181838Z 25014KT 29/07 A2964 RMK A01 T02880071  RH  025%=      5-min Rain = 0
KBY1 181839Z 24013KT 29/07 A2964 RMK A01 T02880074  RH  026%=      5-min Rain = 0
KBY1 181840Z 24014G19KT 29/08 A2964 RMK A01 T02890078  RH  027%=      5-min Rain = 0
KBY1 181841Z 25014KT 29/08 A2964 RMK A01 T02910078  RH  026%=      5-min Rain = 0
KBY1 181842Z 24012KT 29/08 A2964 RMK A01 T02910078  RH  026%=      5-min Rain = 0
KBY1 181843Z 24014KT 29/07 A2964 RMK A01 T02920072  RH  025%=      5-min Rain = 0
KBY1 181844Z 25015G21KT 29/07 A2964 RMK A01 T02920071  RH  025%=      5-min Rain = 0
KBY1 181845Z 26017KT 29/06 A2964 RMK A01 T02920064  RH  024%=      5-min Rain = 0
KBY1 181846Z 25016KT 29/06 A2964 RMK A01 T02900063  RH  024%=      5-min Rain = 0
KBY1 181847Z 26015KT 29/07 A2964 RMK A01 T02890067  RH  025%=      5-min Rain = 0
KBY1 181848Z 27015G20KT 29/07 A2963 RMK A01 T02890068  RH  025%=      5-min Rain = 0
KBY1 181849Z 26015KT 29/07 A2963 RMK A01 T02880074  RH  026%=      5-min Rain = 0
KBY1 181850Z 25016G21KT 29/07 A2963 RMK A01 T02880072  RH  026%=      5-min Rain = 0
KBY1 181851Z 26016KT 29/07 A2963 RMK A01 T02880069  RH  025%=      5-min Rain = 0
KBY1 181852Z 26014G20KT 29/07 A2963 RMK A01 T02880069  RH  025%=      5-min Rain = 0
KBY1 181853Z 25014KT 29/07 A2963 RMK A01 T02910071  RH  025%=      5-min Rain = 0
KBY1 181854Z 24018G26KT 29/07 A2963 RMK A01 T02930069  RH  024%=      5-min Rain = 0
KBY1 181855Z 24016G21KT 29/07 A2963 RMK A01 T02920067  RH  024%=      5-min Rain = 0
KBY1 181856Z 25016KT 29/07 A2963 RMK A01 T02900068  RH  025%=      5-min Rain = 0
KBY1 181857Z 26014KT 29/07 A2963 RMK A01 T02870068  RH  025%=      5-min Rain = 0
KBY1 181858Z 25013KT 29/07 A2963 RMK A01 T02860070  RH  026%=      5-min Rain = 0
KBY1 181859Z 24013G24KT 29/07 A2963 RMK A01 T02900072  RH  025%=      5-min Rain = 0
KBY1 181900Z 26017G22KT 29/07 A2962 RMK A01 T02930068  RH  024%=      5-min Rain = 0
KBY1 181901Z 26017KT 29/07 A2962 RMK A01 T02910067  RH  024%=      5-min Rain = 0
KBY1 181902Z 27015KT 29/07 A2962 RMK A01 T02880068  RH  025%=      5-min Rain = 0
KBY1 181903Z 26014KT 29/07 A2962 RMK A01 T02880071  RH  025%=      5-min Rain = 0
KBY1 181904Z 24016G22KT 29/07 A2962 RMK A01 T02880069  RH  025%=      5-min Rain = 0
KBY1 181905Z 23017G22KT 29/07 A2962 RMK A01 T02890065  RH  024%=      5-min Rain = 0
KBY1 181906Z 23017KT 29/07 A2962 RMK A01 T02900065  RH  024%=      5-min Rain = 0
KBY1 181907Z 24015G21KT 29/07 A2962 RMK A01 T02900067  RH  024%=      5-min Rain = 0
KBY1 181908Z 25016G21KT 29/07 A2962 RMK A01 T02910070  RH  025%=      5-min Rain = 0
KBY1 181909Z 25017KT 29/07 A2962 RMK A01 T02910069  RH  025%=      5-min Rain = 0
KBY1 181910Z 27014G19KT 29/07 A2962 RMK A01 T02890068  RH  025%=      5-min Rain = 0
KBY1 181911Z 25013KT 29/07 A2962 RMK A01 T02890071  RH  025%=      5-min Rain = 0
KBY1 181912Z 25020G25KT 29/07 A2962 RMK A01 T02910067  RH  024%=      5-min Rain = 0
KBY1 181913Z 23015G21KT 29/07 A2962 RMK A01 T02900067  RH  024%=      5-min Rain = 0
KBY1 181914Z 25012G17KT 29/07 A2962 RMK A01 T02900070  RH  025%=      5-min Rain = 0
KBY1 181915Z 24014KT 29/07 A2962 RMK A01 T02930070  RH  025%=      5-min Rain = 0
KBY1 181916Z 25016G22KT 29/07 A2962 RMK A01 T02940069  RH  024%=      5-min Rain = 0
KBY1 181917Z 25017G24KT 29/07 A2962 RMK A01 T02940068  RH  024%=      5-min Rain = 0
KBY1 181918Z 25016KT 29/07 A2962 RMK A01 T02920065  RH  024%=      5-min Rain = 0
KBY1 181919Z 24014KT 29/07 A2962 RMK A01 T02890065  RH  024%=      5-min Rain = 0
KBY1 181920Z 25013G19KT 29/07 A2962 RMK A01 T02900068  RH  025%=      5-min Rain = 0
KBY1 181921Z 24020KT 29/07 A2962 RMK A01 T02920067  RH  024%=      5-min Rain = 0
KBY1 181922Z 23020KT 29/07 A2962 RMK A01 T02910065  RH  024%=      5-min Rain = 0
KBY1 181923Z 23015KT 29/06 A2962 RMK A01 T02890064  RH  024%=      5-min Rain = 0
KBY1 181924Z 24015KT 29/07 A2962 RMK A01 T02880066  RH  025%=      5-min Rain = 0
KBY1 181925Z 24015KT 29/07 A2962 RMK A01 T02890065  RH  024%=      5-min Rain = 0
KBY1 181926Z 25014KT 29/07 A2962 RMK A01 T02890066  RH  024%=      5-min Rain = 0
KBY1 181927Z 24017G24KT 29/07 A2961 RMK A01 T02900065  RH  024%=      5-min Rain = 0
KBY1 181928Z 25020KT 29/06 A2961 RMK A01 T02900062  RH  024%=      5-min Rain = 0
KBY1 181929Z 26018G24KT 29/06 A2961 RMK A01 T02890061  RH  024%=      5-min Rain = 0
KBY1 181930Z 25017KT 29/06 A2961 RMK A01 T02890061  RH  024%=      5-min Rain = 0
KBY1 181931Z 25014G21KT 29/06 A2961 RMK A01 T02890061  RH  024%=      5-min Rain = 0
KBY1 181932Z 26015KT 29/06 A2961 RMK A01 T02890062  RH  024%=      5-min Rain = 0
KBY1 181933Z 26014KT 29/06 A2961 RMK A01 T02890062  RH  024%=      5-min Rain = 0
KBY1 181934Z 26011KT 29/06 A2961 RMK A01 T02880064  RH  024%=      5-min Rain = 0
KBY1 181935Z 23012KT 29/07 A2961 RMK A01 T02890067  RH  025%=      5-min Rain = 0
KBY1 181936Z 24017G23KT 29/07 A2961 RMK A01 T02910067  RH  024%=      5-min Rain = 0
KBY1 181937Z 24014KT 29/07 A2961 RMK A01 T02930065  RH  024%=      5-min Rain = 0
KBY1 181938Z 24017KT 29/07 A2961 RMK A01 T02940067  RH  024%=      5-min Rain = 0
KBY1 181939Z 22017KT 29/06 A2961 RMK A01 T02940062  RH  023%=      5-min Rain = 0
KBY1 181940Z 22016KT 29/06 A2961 RMK A01 T02910062  RH  024%=      5-min Rain = 0
KBY1 181941Z 25013G20KT 29/06 A2961 RMK A01 T02900064  RH  024%=      5-min Rain = 0
KBY1 181942Z 25014KT 29/06 A2961 RMK A01 T02910063  RH  024%=      5-min Rain = 0
KBY1 181943Z 26010KT 29/07 A2961 RMK A01 T02910065  RH  024%=      5-min Rain = 0
KBY1 181944Z 26016KT 29/07 A2961 RMK A01 T02930065  RH  024%=      5-min Rain = 0
KBY1 181945Z 25015KT 29/06 A2961 RMK A01 T02930060  RH  023%=      5-min Rain = 0
KBY1 181946Z 26019G24KT 29/06 A2961 RMK A01 T02930061  RH  023%=      5-min Rain = 0
KBY1 181947Z 25020G27KT 29/06 A2961 RMK A01 T02910058  RH  023%=      5-min Rain = 0
KBY1 181948Z 24015KT 29/06 A2961 RMK A01 T02900060  RH  023%=      5-min Rain = 0
KBY1 181949Z 25014KT 29/06 A2961 RMK A01 T02900062  RH  024%=      5-min Rain = 0
KBY1 181950Z 25015KT 29/06 A2961 RMK A01 T02910061  RH  023%=      5-min Rain = 0
KBY1 181951Z 26015G22KT 29/06 A2961 RMK A01 T02900063  RH  024%=      5-min Rain = 0
KBY1 181952Z 25014KT 29/07 A2961 RMK A01 T02900065  RH  024%=      5-min Rain = 0
KBY1 181953Z 24014G20KT 29/07 A2961 RMK A01 T02920067  RH  024%=      5-min Rain = 0
KBY1 181954Z 26019KT 29/07 A2961 RMK A01 T02930065  RH  024%=      5-min Rain = 0
KBY1 181955Z 26019KT 29/06 A2961 RMK A01 T02910061  RH  023%=      5-min Rain = 0
KBY1 181956Z 26015KT 29/06 A2961 RMK A01 T02870062  RH  024%=      5-min Rain = 0
KBY1 181957Z 26013KT 29/06 A2961 RMK A01 T02870064  RH  024%=      5-min Rain = 0
KBY1 181958Z 25017KT 29/07 A296 RMK A01 T02870065  RH  025%=      5-min Rain = 0
KBY1 181959Z 25015G21KT 29/07 A296 RMK A01 T02870068  RH  025%=      5-min Rain = 0
KBY1 182000Z 26014KT 29/07 A296 RMK A01 T02880071  RH  026%=      5-min Rain = 0
KBY1 182001Z 25017G24KT 29/07 A296 RMK A01 T02900069  RH  025%=      5-min Rain = 0
KBY1 182002Z 24019KT 29/06 A296 RMK A01 T02910064  RH  024%=      5-min Rain = 0
KBY1 182003Z 23017KT 29/06 A296 RMK A01 T02910062  RH  023%=      5-min Rain = 0
KBY1 182004Z 24014KT 29/06 A296 RMK A01 T02910063  RH  024%=      5-min Rain = 0
KBY1 182005Z 23014G19KT 29/07 A296 RMK A01 T02920065  RH  024%=      5-min Rain = 0
KBY1 182006Z 24014G19KT 29/07 A296 RMK A01 T02930065  RH  024%=      5-min Rain = 0
KBY1 182007Z 24018KT 29/07 A296 RMK A01 T02930067  RH  024%=      5-min Rain = 0
KBY1 182008Z 24018KT 29/07 A296 RMK A01 T02920066  RH  024%=      5-min Rain = 0
KBY1 182009Z 24013KT 29/07 A296 RMK A01 T02900066  RH  024%=      5-min Rain = 0
KBY1 182010Z 24010G16KT 29/07 A296 RMK A01 T02890068  RH  025%=      5-min Rain = 0
KBY1 182011Z 24015G20KT 29/07 A296 RMK A01 T02900067  RH  024%=      5-min Rain = 0
KBY1 182012Z 26014G19KT 29/07 A296 RMK A01 T02920067  RH  024%=      5-min Rain = 0
KBY1 182013Z 26020KT 29/06 A296 RMK A01 T02940055  RH  022%=      5-min Rain = 0
KBY1 182014Z 27018KT 29/05 A296 RMK A01 T02930053  RH  022%=      5-min Rain = 0
KBY1 182015Z 26015KT 29/05 A296 RMK A01 T02920052  RH  022%=      5-min Rain = 0
KBY1 182016Z 24013KT 29/06 A296 RMK A01 T02920056  RH  022%=      5-min Rain = 0
KBY1 182017Z 24016G23KT 29/05 A296 RMK A01 T02940054  RH  022%=      5-min Rain = 0
KBY1 182018Z 25021G26KT 30/06 A296 RMK A01 T02950055  RH  022%=      5-min Rain = 0
KBY1 182019Z 24015KT 29/05 A296 RMK A01 T02930054  RH  022%=      5-min Rain = 0
KBY1 182020Z 24014KT 29/06 A296 RMK A01 T02930056  RH  022%=      5-min Rain = 0
KBY1 182021Z 23016KT 29/06 A2959 RMK A01 T02940057  RH  022%=      5-min Rain = 0
KBY1 182022Z 24016G22KT 29/06 A2959 RMK A01 T02940056  RH  022%=      5-min Rain = 0
KBY1 182023Z 24013G18KT 29/06 A2959 RMK A01 T02930058  RH  023%=      5-min Rain = 0
KBY1 182024Z 26011KT 30/06 A296 RMK A01 T02950060  RH  023%=      5-min Rain = 0
KBY1 182025Z 26011KT 30/06 A296 RMK A01 T02970061  RH  023%=      5-min Rain = 0
KBY1 182026Z 25016KT 30/06 A2959 RMK A01 T02970061  RH  022%=      5-min Rain = 0
KBY1 182027Z 25013G18KT 30/06 A2959 RMK A01 T02950060  RH  023%=      5-min Rain = 0
KBY1 182028Z 24020KT 30/06 A2959 RMK A01 T02950059  RH  023%=      5-min Rain = 0
KBY1 182029Z 24015KT 29/06 A2959 RMK A01 T02930058  RH  023%=      5-min Rain = 0
KBY1 182030Z 24012KT 29/06 A2959 RMK A01 T02910061  RH  023%=      5-min Rain = 0
KBY1 182031Z 26012G19KT 29/06 A2959 RMK A01 T02930063  RH  023%=      5-min Rain = 0
KBY1 182032Z 25011KT 30/06 A2959 RMK A01 T02950061  RH  023%=      5-min Rain = 0
KBY1 182033Z 26012KT 29/06 A2959 RMK A01 T02940059  RH  023%=      5-min Rain = 0
KBY1 182034Z 26014KT 29/06 A2959 RMK A01 T02930060  RH  023%=      5-min Rain = 0
KBY1 182035Z 25012KT 29/06 A2959 RMK A01 T02930060  RH  023%=      5-min Rain = 0
KBY1 182036Z 24012KT 29/06 A2959 RMK A01 T02930061  RH  023%=      5-min Rain = 0
KBY1 182037Z 24010G15KT 29/06 A2959 RMK A01 T02930061  RH  023%=      5-min Rain = 0
KBY1 182038Z 24010G15KT 30/07 A2959 RMK A01 T02950065  RH  024%=      5-min Rain = 0
KBY1 182039Z 24012KT 30/07 A2959 RMK A01 T02980067  RH  023%=      5-min Rain = 0
KBY1 182040Z 24017KT 30/07 A2959 RMK A01 T03010065  RH  023%=      5-min Rain = 0
KBY1 182041Z 24016KT 30/06 A2959 RMK A01 T02980061  RH  022%=      5-min Rain = 0
KBY1 182042Z 23015KT 30/06 A2959 RMK A01 T02960064  RH  023%=      5-min Rain = 0
KBY1 182043Z 24019KT 30/06 A2959 RMK A01 T02950063  RH  023%=      5-min Rain = 0
KBY1 182044Z 24017KT 29/06 A2959 RMK A01 T02940064  RH  023%=      5-min Rain = 0
KBY1 182045Z 25013KT 29/07 A2959 RMK A01 T02940065  RH  024%=      5-min Rain = 0
KBY1 182046Z 24014G20KT 30/06 A2959 RMK A01 T02960063  RH  023%=      5-min Rain = 0
KBY1 182047Z 24014G19KT 30/07 A2959 RMK A01 T02950065  RH  023%=      5-min Rain = 0
KBY1 182048Z 24018KT 30/06 A2959 RMK A01 T02960062  RH  023%=      5-min Rain = 0
KBY1 182049Z 24016KT 29/06 A2959 RMK A01 T02940061  RH  023%=      5-min Rain = 0
KBY1 182050Z 24018KT 29/06 A2959 RMK A01 T02930060  RH  023%=      5-min Rain = 0
KBY1 182051Z 24016KT 29/06 A2959 RMK A01 T02890056  RH  023%=      5-min Rain = 0
KBY1 182052Z 25011KT 28/06 A2959 RMK A01 T02840057  RH  024%=      5-min Rain = 0
KBY1 182053Z 26010KT 29/06 A2959 RMK A01 T02850060  RH  024%=      5-min Rain = 0
KBY1 182054Z 25013G18KT 29/06 A2959 RMK A01 T02890061  RH  024%=      5-min Rain = 0
KBY1 182055Z 25018G26KT 29/06 A2959 RMK A01 T02920060  RH  023%=      5-min Rain = 0
KBY1 182056Z 25020G25KT 29/06 A2959 RMK A01 T02910059  RH  023%=      5-min Rain = 0
KBY1 182057Z 24017G22KT 29/06 A2959 RMK A01 T02900058  RH  023%=      5-min Rain = 0
KBY1 182058Z 24017KT 29/06 A2959 RMK A01 T02900060  RH  023%=      5-min Rain = 0
KBY1 182059Z 26015KT 29/06 A2959 RMK A01 T02910060  RH  023%=      5-min Rain = 0
KBY1 182100Z 25013G19KT 29/06 A2959 RMK A01 T02920059  RH  023%=      5-min Rain = 0
KBY1 182101Z 25014KT 29/06 A2959 RMK A01 T02910060  RH  023%=      5-min Rain = 0
KBY1 182102Z 24014KT 29/06 A2959 RMK A01 T02910061  RH  023%=      5-min Rain = 0
KBY1 182103Z 25014KT 29/06 A2959 RMK A01 T02920060  RH  023%=      5-min Rain = 0
KBY1 182104Z 25012KT 29/06 A2959 RMK A01 T02920063  RH  023%=      5-min Rain = 0
KBY1 182105Z 24014KT 29/06 A2959 RMK A01 T02910063  RH  024%=      5-min Rain = 0
KBY1 182106Z 23013G20KT 29/06 A2958 RMK A01 T02910064  RH  024%=      5-min Rain = 0
KBY1 182107Z 26018KT 29/06 A2959 RMK A01 T02910064  RH  024%=      5-min Rain = 0
KBY1 182108Z 26017KT 29/06 A2959 RMK A01 T02910063  RH  024%=      5-min Rain = 0
KBY1 182109Z 26015KT 29/07 A2959 RMK A01 T02910065  RH  024%=      5-min Rain = 0
KBY1 182110Z 26013KT 29/07 A2959 RMK A01 T02900065  RH  024%=      5-min Rain = 0
KBY1 182111Z 26013KT 29/07 A2959 RMK A01 T02890065  RH  024%=      5-min Rain = 0
KBY1 182112Z 25011KT 28/06 A2959 RMK A01 T02840063  RH  025%=      5-min Rain = 0
KBY1 182113Z 26012KT 28/06 A2959 RMK A01 T02820064  RH  025%=      5-min Rain = 0
KBY1 182114Z 26011KT 28/06 A2959 RMK A01 T02800064  RH  025%=      5-min Rain = 0
KBY1 182115Z 26010KT 28/06 A2959 RMK A01 T02810063  RH  025%=      5-min Rain = 0
KBY1 182116Z 24011KT 28/06 A2959 RMK A01 T02830064  RH  025%=      5-min Rain = 0
KBY1 182117Z 24010KT 29/07 A2959 RMK A01 T02870066  RH  025%=      5-min Rain = 0
KBY1 182118Z 23009KT 29/07 A2959 RMK A01 T02900068  RH  025%=      5-min Rain = 0
KBY1 182119Z 24012G21KT 29/07 A2959 RMK A01 T02930070  RH  025%=      5-min Rain = 0
KBY1 182120Z 24018KT 30/06 A2959 RMK A01 T02950062  RH  023%=      5-min Rain = 0
KBY1 182121Z 24014KT 29/06 A2959 RMK A01 T02920059  RH  023%=      5-min Rain = 0
KBY1 182122Z 25011KT 29/06 A2959 RMK A01 T02920063  RH  024%=      5-min Rain = 0
KBY1 182123Z 26016G22KT 29/06 A2958 RMK A01 T02940061  RH  023%=      5-min Rain = 0
KBY1 182124Z 27015G20KT 29/06 A2958 RMK A01 T02930060  RH  023%=      5-min Rain = 0
KBY1 182125Z 26015KT 29/06 A2958 RMK A01 T02900061  RH  023%=      5-min Rain = 0
KBY1 182126Z 25010KT 29/06 A2958 RMK A01 T02900061  RH  023%=      5-min Rain = 0
KBY1 182127Z 26012KT 29/06 A2959 RMK A01 T02920062  RH  023%=      5-min Rain = 0
KBY1 182128Z 25011KT 29/06 A2958 RMK A01 T02930062  RH  023%=      5-min Rain = 0
KBY1 182129Z 23013G22KT 29/06 A2958 RMK A01 T02940062  RH  023%=      5-min Rain = 0
KBY1 182130Z 25017KT 30/06 A2958 RMK A01 T02950061  RH  023%=      5-min Rain = 0
KBY1 182131Z 25013G18KT 29/06 A2958 RMK A01 T02940062  RH  023%=      5-min Rain = 0
KBY1 182132Z 24014KT 29/06 A2958 RMK A01 T02930062  RH  023%=      5-min Rain = 0
KBY1 182133Z 25013G18KT 29/06 A2958 RMK A01 T02930060  RH  023%=      5-min Rain = 0
KBY1 182134Z 26016KT 29/06 A2958 RMK A01 T02930059  RH  023%=      5-min Rain = 0
KBY1 182135Z 25014KT 29/06 A2958 RMK A01 T02910059  RH  023%=      5-min Rain = 0
KBY1 182136Z 26012G18KT 29/06 A2958 RMK A01 T02910061  RH  023%=      5-min Rain = 0
KBY1 182137Z 26015KT 29/06 A2958 RMK A01 T02910062  RH  023%=      5-min Rain = 0
KBY1 182138Z 25010KT 29/06 A2958 RMK A01 T02920060  RH  023%=      5-min Rain = 0
KBY1 182139Z 26013KT 29/06 A2958 RMK A01 T02910060  RH  023%=      5-min Rain = 0
KBY1 182140Z 26012G17KT 29/06 A2958 RMK A01 T02910062  RH  023%=      5-min Rain = 0
KBY1 182141Z 24012KT 29/06 A2958 RMK A01 T02920060  RH  023%=      5-min Rain = 0
KBY1 182142Z 24011KT 29/06 A2958 RMK A01 T02920061  RH  023%=      5-min Rain = 0
KBY1 182143Z 25010KT 29/06 A2958 RMK A01 T02920059  RH  023%=      5-min Rain = 0
KBY1 182144Z 25012KT 29/05 A2958 RMK A01 T02930054  RH  022%=      5-min Rain = 0
KBY1 182145Z 24010G16KT 30/06 A2958 RMK A01 T02950057  RH  022%=      5-min Rain = 0
KBY1 182146Z 25015G21KT 30/05 A2958 RMK A01 T02970054  RH  021%=      5-min Rain = 0
KBY1 182147Z 26015KT 30/05 A2958 RMK A01 T02980051  RH  021%=      5-min Rain = 0
KBY1 182148Z 26014G19KT 30/05 A2958 RMK A01 T02960051  RH  021%=      5-min Rain = 0
KBY1 182149Z 26015KT 30/05 A2958 RMK A01 T02960050  RH  021%=      5-min Rain = 0
KBY1 182150Z 25013KT 29/05 A2958 RMK A01 T02940052  RH  021%=      5-min Rain = 0
KBY1 182151Z 25016KT 30/05 A2958 RMK A01 T02950051  RH  021%=      5-min Rain = 0
KBY1 182152Z 24017KT 30/05 A2958 RMK A01 T02960050  RH  021%=      5-min Rain = 0
KBY1 182153Z 25016KT 29/05 A2958 RMK A01 T02940049  RH  021%=      5-min Rain = 0
KBY1 182154Z 25011KT 29/05 A2958 RMK A01 T02930048  RH  021%=      5-min Rain = 0
KBY1 182155Z 25012KT 29/05 A2958 RMK A01 T02930048  RH  021%=      5-min Rain = 0
KBY1 182156Z 24013KT 29/05 A2958 RMK A01 T02930050  RH  021%=      5-min Rain = 0
KBY1 182157Z 23014KT 29/05 A2958 RMK A01 T02930048  RH  021%=      5-min Rain = 0
KBY1 182158Z 24013KT 29/05 A2958 RMK A01 T02920046  RH  021%=      5-min Rain = 0
KBY1 182159Z 25015KT 29/05 A2958 RMK A01 T02920045  RH  021%=      5-min Rain = 0
KBY1 182200Z 26014KT 29/04 A2958 RMK A01 T02930044  RH  021%=      5-min Rain = 0
KBY1 182201Z 25013KT 29/05 A2958 RMK A01 T02940045  RH  021%=      5-min Rain = 0
KBY1 182202Z 24011KT 30/05 A2958 RMK A01 T02950046  RH  021%=      5-min Rain = 0
KBY1 182203Z 25009KT 30/05 A2958 RMK A01 T02970047  RH  020%=      5-min Rain = 0
KBY1 182204Z 25009KT 30/05 A2958 RMK A01 T02980048  RH  021%=      5-min Rain = 0
KBY1 182205Z 25011KT 30/04 A2958 RMK A01 T02990044  RH  020%=      5-min Rain = 0
KBY1 182206Z 25012KT 30/04 A2958 RMK A01 T02970043  RH  020%=      5-min Rain = 0
KBY1 182207Z 25012KT 29/04 A2958 RMK A01 T02940041  RH  020%=      5-min Rain = 0
KBY1 182208Z 25014KT 29/04 A2958 RMK A01 T02920040  RH  020%=      5-min Rain = 0
KBY1 182209Z 26017KT 29/04 A2958 RMK A01 T02920040  RH  020%=      5-min Rain = 0
KBY1 182210Z 26016KT 29/04 A2958 RMK A01 T02910039  RH  020%=      5-min Rain = 0
KBY1 182211Z 26012KT 29/04 A2958 RMK A01 T02920039  RH  020%=      5-min Rain = 0
KBY1 182212Z 26013KT 29/04 A2958 RMK A01 T02920041  RH  020%=      5-min Rain = 0
KBY1 182213Z 24011KT 29/04 A2958 RMK A01 T02930043  RH  020%=      5-min Rain = 0
KBY1 182214Z 23010KT 29/04 A2958 RMK A01 T02940044  RH  020%=      5-min Rain = 0
KBY1 182215Z 23012KT 30/04 A2959 RMK A01 T02950043  RH  020%=      5-min Rain = 0
KBY1 182216Z 25010KT 30/04 A2959 RMK A01 T02950042  RH  020%=      5-min Rain = 0
KBY1 182217Z 26009KT 29/04 A2959 RMK A01 T02920041  RH  020%=      5-min Rain = 0
KBY1 182218Z 26011KT 29/04 A2959 RMK A01 T02900043  RH  021%=      5-min Rain = 0
KBY1 182219Z 26016G22KT 29/04 A2959 RMK A01 T02910044  RH  021%=      5-min Rain = 0
KBY1 182220Z 26016KT 29/04 A2959 RMK A01 T02910043  RH  021%=      5-min Rain = 0
KBY1 182221Z 26014G19KT 29/04 A2959 RMK A01 T02910043  RH  021%=      5-min Rain = 0
KBY1 182222Z 26014G19KT 29/05 A2959 RMK A01 T02890045  RH  021%=      5-min Rain = 0
KBY1 182223Z 25011KT 29/04 A2959 RMK A01 T02870044  RH  021%=      5-min Rain = 0
KBY1 182224Z 24011KT 29/04 A2959 RMK A01 T02850044  RH  021%=      5-min Rain = 0
KBY1 182225Z 25011KT 28/04 A2959 RMK A01 T02830042  RH  021%=      5-min Rain = 0
KBY1 182226Z 25012KT 28/04 A2959 RMK A01 T02830043  RH  022%=      5-min Rain = 0
KBY1 182227Z 26010KT 29/04 A2959 RMK A01 T02850043  RH  021%=      5-min Rain = 0
KBY1 182228Z 26011KT 29/04 A2959 RMK A01 T02870044  RH  021%=      5-min Rain = 0
KBY1 182229Z 26012KT 29/04 A2959 RMK A01 T02890044  RH  021%=      5-min Rain = 0
KBY1 182230Z 27012KT 29/04 A2959 RMK A01 T02900041  RH  021%=      5-min Rain = 0
KBY1 182231Z 26014KT 29/04 A2959 RMK A01 T02900041  RH  020%=      5-min Rain = 0
KBY1 182232Z 27014KT 29/04 A2959 RMK A01 T02900039  RH  020%=      5-min Rain = 0
KBY1 182233Z 24017G23KT 29/04 A2959 RMK A01 T02900041  RH  020%=      5-min Rain = 0
KBY1 182234Z 25019KT 29/04 A2959 RMK A01 T02890038  RH  020%=      5-min Rain = 0
KBY1 182235Z 25016G23KT 29/04 A2959 RMK A01 T02870036  RH  020%=      5-min Rain = 0
KBY1 182236Z 25018KT 29/04 A2959 RMK A01 T02870036  RH  020%=      5-min Rain = 0
KBY1 182237Z 25017KT 29/04 A2959 RMK A01 T02870037  RH  020%=      5-min Rain = 0
KBY1 182238Z 24015G20KT 29/04 A2959 RMK A01 T02880037  RH  020%=      5-min Rain = 0
KBY1 182239Z 25014KT 29/04 A2959 RMK A01 T02890038  RH  020%=      5-min Rain = 0
KBY1 182240Z 25017G22KT 29/04 A2959 RMK A01 T02890037  RH  020%=      5-min Rain = 0
KBY1 182241Z 25016KT 29/04 A2959 RMK A01 T02890037  RH  020%=      5-min Rain = 0
KBY1 182242Z 26016KT 29/04 A2959 RMK A01 T02890036  RH  020%=      5-min Rain = 0
KBY1 182243Z 26016KT 29/04 A2959 RMK A01 T02890035  RH  020%=      5-min Rain = 0
KBY1 182244Z 26014KT 29/04 A2959 RMK A01 T02890035  RH  020%=      5-min Rain = 0
KBY1 182245Z 27012G17KT 29/04 A2959 RMK A01 T02900036  RH  020%=      5-min Rain = 0
KBY1 182246Z 26011KT 29/04 A2959 RMK A01 T02900035  RH  020%=      5-min Rain = 0
KBY1 182247Z 26010KT 29/04 A2959 RMK A01 T02900037  RH  020%=      5-min Rain = 0
KBY1 182248Z 26012KT 29/04 A2959 RMK A01 T02900037  RH  020%=      5-min Rain = 0
KBY1 182249Z 26016KT 29/03 A2959 RMK A01 T02900033  RH  019%=      5-min Rain = 0
KBY1 182250Z 26018G23KT 29/03 A2959 RMK A01 T02890032  RH  019%=      5-min Rain = 0
KBY1 182251Z 26012KT 29/03 A2959 RMK A01 T02880033  RH  020%=      5-min Rain = 0
KBY1 182252Z 25010KT 29/04 A2959 RMK A01 T02880035  RH  020%=      5-min Rain = 0
KBY1 182253Z 24013KT 29/04 A2959 RMK A01 T02880035  RH  020%=      5-min Rain = 0
KBY1 182254Z 25012KT 29/03 A2959 RMK A01 T02880034  RH  020%=      5-min Rain = 0
KBY1 182255Z 25015KT 29/04 A2959 RMK A01 T02880035  RH  020%=      5-min Rain = 0
KBY1 182256Z 26010KT 29/04 A2959 RMK A01 T02870035  RH  020%=      5-min Rain = 0
KBY1 182257Z 25013KT 29/04 A2959 RMK A01 T02870036  RH  020%=      5-min Rain = 0
KBY1 182258Z 25013KT 29/04 A2959 RMK A01 T02870035  RH  020%=      5-min Rain = 0
KBY1 182259Z 26013KT 29/04 A2959 RMK A01 T02860035  RH  020%=      5-min Rain = 0
KBY1 182300Z 25010G15KT 29/04 A2959 RMK A01 T02860036  RH  020%=      5-min Rain = 0
KBY1 182301Z 25011G16KT 29/04 A2959 RMK A01 T02860037  RH  020%=      5-min Rain = 0
KBY1 182302Z 26016G21KT 29/03 A2959 RMK A01 T02850034  RH  020%=      5-min Rain = 0
KBY1 182303Z 26015KT 28/03 A2959 RMK A01 T02840032  RH  020%=      5-min Rain = 0
KBY1 182304Z 26014G19KT 28/03 A2959 RMK A01 T02830031  RH  020%=      5-min Rain = 0
KBY1 182305Z 26015KT 28/03 A2959 RMK A01 T02830031  RH  020%=      5-min Rain = 0
KBY1 182306Z 26013KT 28/03 A2959 RMK A01 T02820031  RH  020%=      5-min Rain = 0
KBY1 182307Z 26015KT 28/03 A2959 RMK A01 T02820031  RH  020%=      5-min Rain = 0
KBY1 182308Z 26015KT 28/03 A2959 RMK A01 T02810029  RH  020%=      5-min Rain = 0
KBY1 182309Z 26013G18KT 28/03 A2959 RMK A01 T02810029  RH  020%=      5-min Rain = 0
KBY1 182310Z 26011G16KT 28/03 A2959 RMK A01 T02790029  RH  020%=      5-min Rain = 0
KBY1 182311Z 26013KT 28/03 A2959 RMK A01 T02790029  RH  020%=      5-min Rain = 0
KBY1 182312Z 26013G18KT 28/03 A2959 RMK A01 T02790027  RH  020%=      5-min Rain = 0
KBY1 182313Z 27018KT 28/03 A2959 RMK A01 T02790025  RH  020%=      5-min Rain = 0
KBY1 182314Z 26015KT 28/03 A2959 RMK A01 T02790025  RH  019%=      5-min Rain = 0
KBY1 182315Z 26012KT 28/03 A296 RMK A01 T02790027  RH  020%=      5-min Rain = 0
KBY1 182316Z 26011KT 28/03 A296 RMK A01 T02780027  RH  020%=      5-min Rain = 0
KBY1 182317Z 25014KT 28/03 A296 RMK A01 T02780025  RH  020%=      5-min Rain = 0
KBY1 182318Z 26013KT 28/02 A296 RMK A01 T02780022  RH  019%=      5-min Rain = 0
KBY1 182319Z 26017KT 28/02 A296 RMK A01 T02780022  RH  019%=      5-min Rain = 0
KBY1 182320Z 26013G19KT 28/02 A296 RMK A01 T02770021  RH  019%=      5-min Rain = 0
KBY1 182321Z 26013KT 28/02 A296 RMK A01 T02770021  RH  019%=      5-min Rain = 0
KBY1 182322Z 27012KT 28/02 A296 RMK A01 T02770020  RH  019%=      5-min Rain = 0
KBY1 182323Z 27012KT 28/02 A296 RMK A01 T02770021  RH  019%=      5-min Rain = 0
KBY1 182324Z 27013G18KT 28/02 A296 RMK A01 T02760020  RH  019%=      5-min Rain = 0
KBY1 182325Z 27013KT 28/02 A296 RMK A01 T02760020  RH  019%=      5-min Rain = 0
KBY1 182326Z 27011KT 28/02 A296 RMK A01 T02760019  RH  019%=      5-min Rain = 0
KBY1 182327Z 26012KT 28/02 A296 RMK A01 T02750019  RH  019%=      5-min Rain = 0
KBY1 182328Z 27013KT 28/02 A296 RMK A01 T02750018  RH  019%=      5-min Rain = 0
KBY1 182329Z 26011KT 27/02 A296 RMK A01 T02740017  RH  019%=      5-min Rain = 0
KBY1 182330Z 26013KT 27/02 A296 RMK A01 T02730018  RH  019%=      5-min Rain = 0
KBY1 182331Z 26012KT 27/02 A296 RMK A01 T02720016  RH  019%=      5-min Rain = 0
KBY1 182332Z 26013KT 27/02 A296 RMK A01 T02710016  RH  019%=      5-min Rain = 0
KBY1 182333Z 27011G17KT 27/02 A296 RMK A01 T02710016  RH  019%=      5-min Rain = 0
KBY1 182334Z 27013KT 27/02 A296 RMK A01 T02710016  RH  019%=      5-min Rain = 0
KBY1 182335Z 27010KT 27/02 A296 RMK A01 T02710017  RH  019%=      5-min Rain = 0
KBY1 182336Z 27010KT 27/02 A296 RMK A01 T02690018  RH  020%=      5-min Rain = 0
KBY1 182337Z 26009KT 27/02 A296 RMK A01 T02680017  RH  020%=      5-min Rain = 0
KBY1 182338Z 26010KT 27/02 A296 RMK A01 T02660017  RH  020%=      5-min Rain = 0
KBY1 182339Z 25011KT 27/02 A296 RMK A01 T02660017  RH  020%=      5-min Rain = 0
KBY1 182340Z 26009KT 27/02 A2961 RMK A01 T02650016  RH  020%=      5-min Rain = 0
KBY1 182341Z 25009KT 26/02 A2961 RMK A01 T02640018  RH  020%=      5-min Rain = 0
KBY1 182342Z 26010KT 26/02 A2961 RMK A01 T02630018  RH  020%=      5-min Rain = 0
KBY1 182343Z 25010KT 26/02 A2961 RMK A01 T02620017  RH  020%=      5-min Rain = 0
KBY1 182344Z 26010KT 26/02 A2961 RMK A01 T02620017  RH  020%=      5-min Rain = 0
KBY1 182345Z 26010KT 26/02 A2961 RMK A01 T02620017  RH  020%=      5-min Rain = 0
KBY1 182346Z 26008KT 26/02 A2961 RMK A01 T02610018  RH  021%=      5-min Rain = 0
KBY1 182347Z 26010KT 26/02 A2961 RMK A01 T02590018  RH  021%=      5-min Rain = 0
KBY1 182348Z 26010KT 26/02 A2961 RMK A01 T02590018  RH  021%=      5-min Rain = 0
KBY1 182349Z 26010KT 26/02 A2961 RMK A01 T02590018  RH  021%=      5-min Rain = 0
KBY1 182350Z 26009KT 26/02 A2961 RMK A01 T02590018  RH  021%=      5-min Rain = 0
KBY1 182351Z 27010G15KT 26/02 A2961 RMK A01 T02590018  RH  021%=      5-min Rain = 0
KBY1 182352Z 26011KT 26/02 A2961 RMK A01 T02590018  RH  021%=      5-min Rain = 0
KBY1 182353Z 27011KT 26/02 A2961 RMK A01 T02580018  RH  021%=      5-min Rain = 0
KBY1 182354Z 26010KT 26/02 A2961 RMK A01 T02580018  RH  021%=      5-min Rain = 0
KBY1 182355Z 26008KT 26/02 A2961 RMK A01 T02570018  RH  021%=      5-min Rain = 0
KBY1 182356Z 26009G14KT 26/02 A2961 RMK A01 T02560018  RH  021%=      5-min Rain = 0
KBY1 182357Z 26013KT 26/02 A2961 RMK A01 T02560017  RH  021%=      5-min Rain = 0
KBY1 182358Z 26010KT 26/02 A2961 RMK A01 T02560016  RH  021%=      5-min Rain = 0
KBY1 182359Z 26013KT 26/02 A2961 RMK A01 T02570017  RH  021%=      5-min Rain = 0
KBY1 190000Z 26010KT 26/02 A2961 RMK A01 T02570016  RH  021%=      5-min Rain = 0
KBY1 190001Z 26010KT 26/02 A2961 RMK A01 T02570016  RH  021%=      5-min Rain = 0
KBY1 190002Z 26013KT 26/02 A2961 RMK A01 T02560016  RH  021%=      5-min Rain = 0
KBY1 190003Z 26013KT 26/02 A2961 RMK A01 T02560015  RH  021%=      5-min Rain = 0
KBY1 190004Z 25010KT 26/02 A2961 RMK A01 T02570015  RH  021%=      5-min Rain = 0
KBY1 190005Z 26010KT 26/02 A2962 RMK A01 T02560016  RH  021%=      5-min Rain = 0
KBY1 190006Z 26008KT 26/02 A2962 RMK A01 T02550016  RH  021%=      5-min Rain = 0
KBY1 190007Z 25010KT 25/02 A2962 RMK A01 T02530017  RH  021%=      5-min Rain = 0
KBY1 190008Z 26011KT 25/02 A2962 RMK A01 T02510015  RH  021%=      5-min Rain = 0
KBY1 190009Z 25011KT 25/01 A2962 RMK A01 T02510013  RH  021%=      5-min Rain = 0
KBY1 190010Z 26012KT 25/01 A2962 RMK A01 T02520012  RH  021%=      5-min Rain = 0
KBY1 190011Z 26012KT 25/01 A2962 RMK A01 T02520012  RH  021%=      5-min Rain = 0
KBY1 190012Z 26012KT 25/01 A2962 RMK A01 T02520011  RH  021%=      5-min Rain = 0
KBY1 190013Z 26012KT 25/01 A2962 RMK A01 T02520010  RH  020%=      5-min Rain = 0
KBY1 190014Z 27010G16KT 25/01 A2962 RMK A01 T02530010  RH  020%=      5-min Rain = 0
KBY1 190015Z 25012KT 25/01 A2962 RMK A01 T02520009  RH  020%=      5-min Rain = 0
KBY1 190016Z 26012KT 25/01 A2962 RMK A01 T02520009  RH  020%=      5-min Rain = 0
KBY1 190017Z 25010KT 25/01 A2962 RMK A01 T02530009  RH  020%=      5-min Rain = 0
KBY1 190018Z 26010KT 25/01 A2962 RMK A01 T02520010  RH  020%=      5-min Rain = 0
KBY1 190019Z 26011KT 25/01 A2962 RMK A01 T02510010  RH  021%=      5-min Rain = 0
KBY1 190020Z 25012KT 25/01 A2962 RMK A01 T02500010  RH  021%=      5-min Rain = 0
KBY1 190021Z 26008KT 25/01 A2962 RMK A01 T02500010  RH  021%=      5-min Rain = 0
KBY1 190022Z 26010KT 25/01 A2962 RMK A01 T02490010  RH  021%=      5-min Rain = 0
KBY1 190023Z 25008KT 25/01 A2962 RMK A01 T02480010  RH  021%=      5-min Rain = 0
KBY1 190024Z 25009KT 25/01 A2962 RMK A01 T02470010  RH  021%=      5-min Rain = 0
KBY1 190025Z 25010KT 25/01 A2962 RMK A01 T02460009  RH  021%=      5-min Rain = 0
KBY1 190026Z 26008G14KT 25/01 A2962 RMK A01 T02460009  RH  021%=      5-min Rain = 0
KBY1 190027Z 25009KT 25/01 A2962 RMK A01 T02460010  RH  021%=      5-min Rain = 0
KBY1 190028Z 25010KT 25/01 A2962 RMK A01 T02460009  RH  021%=      5-min Rain = 0
KBY1 190029Z 25009KT 25/01 A2962 RMK A01 T02450009  RH  021%=      5-min Rain = 0
KBY1 190030Z 25008KT 25/01 A2962 RMK A01 T02460009  RH  021%=      5-min Rain = 0
KBY1 190031Z 25007KT 25/01 A2962 RMK A01 T02460009  RH  021%=      5-min Rain = 0
KBY1 190032Z 25007KT 25/01 A2962 RMK A01 T02450009  RH  021%=      5-min Rain = 0
KBY1 190033Z 25006KT 24/01 A2962 RMK A01 T02440010  RH  021%=      5-min Rain = 0
KBY1 190034Z 25007KT 24/01 A2962 RMK A01 T02430010  RH  022%=      5-min Rain = 0
KBY1 190035Z 25006KT 24/01 A2962 RMK A01 T02420009  RH  022%=      5-min Rain = 0
KBY1 190036Z 25007KT 24/01 A2962 RMK A01 T02420010  RH  022%=      5-min Rain = 0
KBY1 190037Z 25007KT 24/01 A2962 RMK A01 T02420010  RH  022%=      5-min Rain = 0
KBY1 190038Z 25008KT 24/01 A2962 RMK A01 T02410010  RH  022%=      5-min Rain = 0
KBY1 190039Z 25010KT 24/01 A2962 RMK A01 T02410009  RH  022%=      5-min Rain = 0
KBY1 190040Z 25009KT 24/01 A2962 RMK A01 T02420009  RH  022%=      5-min Rain = 0
KBY1 190041Z 25008KT 24/01 A2962 RMK A01 T02420009  RH  022%=      5-min Rain = 0
KBY1 190042Z 25008KT 24/01 A2962 RMK A01 T02420010  RH  022%=      5-min Rain = 0
KBY1 190043Z 25008KT 24/01 A2962 RMK A01 T02410011  RH  022%=      5-min Rain = 0
KBY1 190044Z 25006KT 24/01 A2962 RMK A01 T02410011  RH  022%=      5-min Rain = 0
KBY1 190045Z 25008KT 24/01 A2963 RMK A01 T02400011  RH  022%=      5-min Rain = 0
KBY1 190046Z 25009G15KT 24/01 A2963 RMK A01 T02390011  RH  022%=      5-min Rain = 0
KBY1 190047Z 25010KT 24/01 A2963 RMK A01 T02380011  RH  022%=      5-min Rain = 0
KBY1 190048Z 25009G14KT 24/01 A2963 RMK A01 T02390010  RH  022%=      5-min Rain = 0
KBY1 190049Z 25009KT 24/01 A2963 RMK A01 T02400010  RH  022%=      5-min Rain = 0
KBY1 190050Z 26011KT 24/01 A2963 RMK A01 T02410010  RH  022%=      5-min Rain = 0
KBY1 190051Z 25010KT 24/01 A2963 RMK A01 T02410010  RH  022%=      5-min Rain = 0
KBY1 190052Z 25012KT 24/01 A2963 RMK A01 T02410009  RH  022%=      5-min Rain = 0
KBY1 190053Z 26009KT 24/01 A2963 RMK A01 T02420010  RH  022%=      5-min Rain = 0
KBY1 190054Z 26009KT 24/01 A2963 RMK A01 T02410011  RH  022%=      5-min Rain = 0
KBY1 190055Z 25010KT 24/01 A2963 RMK A01 T02410010  RH  022%=      5-min Rain = 0
KBY1 190056Z 25010KT 24/01 A2963 RMK A01 T02410010  RH  022%=      5-min Rain = 0
KBY1 190057Z 25010KT 24/01 A2963 RMK A01 T02410010  RH  022%=      5-min Rain = 0
KBY1 190058Z 25010KT 24/01 A2963 RMK A01 T02410010  RH  022%=      5-min Rain = 0
KBY1 190059Z 25010KT 24/01 A2963 RMK A01 T02410009  RH  022%=      5-min Rain = 0
KBY1 190100Z 25008KT 24/01 A2963 RMK A01 T02420011  RH  022%=      5-min Rain = 0
KBY1 190101Z 25009KT 24/01 A2963 RMK A01 T02410011  RH  022%=      5-min Rain = 0
KBY1 190102Z 25008KT 24/01 A2964 RMK A01 T02410010  RH  022%=      5-min Rain = 0
KBY1 190103Z 26009KT 24/01 A2964 RMK A01 T02410010  RH  022%=      5-min Rain = 0
KBY1 190104Z 25011KT 24/01 A2964 RMK A01 T02410010  RH  022%=      5-min Rain = 0
KBY1 190105Z 26008KT 24/01 A2964 RMK A01 T02410011  RH  022%=      5-min Rain = 0
KBY1 190106Z 25009KT 24/01 A2964 RMK A01 T02410011  RH  022%=      5-min Rain = 0
KBY1 190107Z 25010KT 24/01 A2964 RMK A01 T02410011  RH  022%=      5-min Rain = 0
KBY1 190108Z 26008KT 24/01 A2964 RMK A01 T02410011  RH  022%=      5-min Rain = 0
KBY1 190109Z 25012G18KT 24/01 A2964 RMK A01 T02400011  RH  022%=      5-min Rain = 0
KBY1 190110Z 25011KT 24/01 A2964 RMK A01 T02400010  RH  022%=      5-min Rain = 0
KBY1 190111Z 25010G15KT 24/01 A2964 RMK A01 T02410010  RH  022%=      5-min Rain = 0
KBY1 190112Z 26010KT 24/01 A2964 RMK A01 T02410011  RH  022%=      5-min Rain = 0
KBY1 190113Z 25011KT 24/01 A2964 RMK A01 T02410010  RH  022%=      5-min Rain = 0
KBY1 190114Z 26010KT 24/01 A2964 RMK A01 T02410010  RH  022%=      5-min Rain = 0
KBY1 190115Z 25011KT 24/01 A2964 RMK A01 T02420011  RH  022%=      5-min Rain = 0
KBY1 190116Z 25011KT 24/01 A2965 RMK A01 T02410011  RH  022%=      5-min Rain = 0
KBY1 190117Z 26010G16KT 24/01 A2965 RMK A01 T02410011  RH  022%=      5-min Rain = 0
KBY1 190118Z 25011KT 24/01 A2965 RMK A01 T02410010  RH  022%=      5-min Rain = 0
KBY1 190119Z 26012KT 24/01 A2965 RMK A01 T02410010  RH  022%=      5-min Rain = 0
KBY1 190120Z 26010KT 24/01 A2965 RMK A01 T02410010  RH  022%=      5-min Rain = 0
KBY1 190121Z 26011KT 24/01 A2965 RMK A01 T02400010  RH  022%=      5-min Rain = 0
KBY1 190122Z 26014KT 24/01 A2965 RMK A01 T02400009  RH  022%=      5-min Rain = 0
KBY1 190123Z 25011KT 24/01 A2965 RMK A01 T02410009  RH  022%=      5-min Rain = 0
KBY1 190124Z 26011KT 24/01 A2965 RMK A01 T02410009  RH  022%=      5-min Rain = 0
KBY1 190125Z 25010KT 24/01 A2965 RMK A01 T02400009  RH  022%=      5-min Rain = 0
KBY1 190126Z 26009KT 24/01 A2965 RMK A01 T02400009  RH  022%=      5-min Rain = 0
KBY1 190127Z 26009G14KT 24/01 A2965 RMK A01 T02390009  RH  022%=      5-min Rain = 0
KBY1 190128Z 25011KT 24/01 A2965 RMK A01 T02380010  RH  022%=      5-min Rain = 0
KBY1 190129Z 25008KT 24/01 A2965 RMK A01 T02380010  RH  022%=      5-min Rain = 0
KBY1 190130Z 25010KT 24/01 A2965 RMK A01 T02380011  RH  022%=      5-min Rain = 0
KBY1 190131Z 25010KT 24/01 A2965 RMK A01 T02370010  RH  022%=      5-min Rain = 0
KBY1 190132Z 25010KT 24/01 A2965 RMK A01 T02370010  RH  022%=      5-min Rain = 0
KBY1 190133Z 25008KT 24/01 A2965 RMK A01 T02360010  RH  023%=      5-min Rain = 0
KBY1 190134Z 25010KT 24/01 A2965 RMK A01 T02360011  RH  023%=      5-min Rain = 0
KBY1 190135Z 25010KT 24/01 A2965 RMK A01 T02360010  RH  023%=      5-min Rain = 0
KBY1 190136Z 25010KT 24/01 A2965 RMK A01 T02360010  RH  023%=      5-min Rain = 0
KBY1 190137Z 26009KT 24/01 A2965 RMK A01 T02350010  RH  023%=      5-min Rain = 0
KBY1 190138Z 25008KT 24/01 A2965 RMK A01 T02360010  RH  023%=      5-min Rain = 0
KBY1 190139Z 25008KT 24/01 A2965 RMK A01 T02360010  RH  023%=      5-min Rain = 0
KBY1 190140Z 25009G14KT 24/01 A2965 RMK A01 T02360011  RH  023%=      5-min Rain = 0
KBY1 190141Z 25010KT 24/01 A2965 RMK A01 T02350010  RH  023%=      5-min Rain = 0
KBY1 190142Z 25009KT 24/01 A2965 RMK A01 T02360010  RH  023%=      5-min Rain = 0
KBY1 190143Z 26010KT 24/01 A2966 RMK A01 T02360010  RH  023%=      5-min Rain = 0
KBY1 190144Z 26009KT 24/01 A2966 RMK A01 T02360011  RH  023%=      5-min Rain = 0
KBY1 190145Z 26011KT 24/01 A2966 RMK A01 T02360011  RH  023%=      5-min Rain = 0
KBY1 190146Z 26010KT 24/01 A2966 RMK A01 T02360011  RH  023%=      5-min Rain = 0
KBY1 190147Z 25010KT 24/01 A2966 RMK A01 T02360011  RH  023%=      5-min Rain = 0
KBY1 190148Z 26010KT 24/01 A2966 RMK A01 T02350012  RH  023%=      5-min Rain = 0
KBY1 190149Z 26009KT 24/01 A2966 RMK A01 T02350012  RH  023%=      5-min Rain = 0
KBY1 190150Z 26009KT 24/01 A2966 RMK A01 T02350012  RH  023%=      5-min Rain = 0
KBY1 190151Z 25009KT 23/01 A2966 RMK A01 T02340012  RH  023%=      5-min Rain = 0
KBY1 190152Z 26007KT 23/01 A2966 RMK A01 T02330013  RH  023%=      5-min Rain = 0
KBY1 190153Z 26007KT 23/01 A2966 RMK A01 T02320014  RH  024%=      5-min Rain = 0
KBY1 190154Z 26008KT 23/01 A2966 RMK A01 T02310013  RH  024%=      5-min Rain = 0
KBY1 190155Z 25009G14KT 23/01 A2966 RMK A01 T02310013  RH  024%=      5-min Rain = 0
KBY1 190156Z 25008KT 23/01 A2967 RMK A01 T02300012  RH  024%=      5-min Rain = 0
KBY1 190157Z 25010KT 23/01 A2967 RMK A01 T02300012  RH  024%=      5-min Rain = 0
KBY1 190158Z 25010KT 23/01 A2967 RMK A01 T02310012  RH  024%=      5-min Rain = 0
KBY1 190159Z 25010KT 23/01 A2967 RMK A01 T02310013  RH  024%=      5-min Rain = 0
KBY1 190200Z 25011KT 23/01 A2967 RMK A01 T02320014  RH  024%=      5-min Rain = 0
KBY1 190201Z 26011KT 23/01 A2967 RMK A01 T02320013  RH  024%=      5-min Rain = 0
KBY1 190202Z 25010KT 23/01 A2967 RMK A01 T02320013  RH  024%=      5-min Rain = 0
KBY1 190203Z 26011G16KT 23/01 A2967 RMK A01 T02320014  RH  024%=      5-min Rain = 0
KBY1 190204Z 26011KT 23/01 A2967 RMK A01 T02320013  RH  024%=      5-min Rain = 0
KBY1 190205Z 26009KT 23/01 A2967 RMK A01 T02320014  RH  024%=      5-min Rain = 0
KBY1 190206Z 26011KT 23/01 A2967 RMK A01 T02320014  RH  024%=      5-min Rain = 0
KBY1 190207Z 25008KT 23/02 A2967 RMK A01 T02320015  RH  024%=      5-min Rain = 0
KBY1 190208Z 25009KT 23/02 A2967 RMK A01 T02310015  RH  024%=      5-min Rain = 0
KBY1 190209Z 25009KT 23/02 A2967 RMK A01 T02310015  RH  024%=      5-min Rain = 0
KBY1 190210Z 25010KT 23/02 A2967 RMK A01 T02310015  RH  024%=      5-min Rain = 0
KBY1 190211Z 26008KT 23/02 A2967 RMK A01 T02300016  RH  024%=      5-min Rain = 0
KBY1 190212Z 26009KT 23/02 A2967 RMK A01 T02300016  RH  024%=      5-min Rain = 0
KBY1 190213Z 26008KT 23/02 A2967 RMK A01 T02290016  RH  025%=      5-min Rain = 0
KBY1 190214Z 26008G13KT 23/02 A2968 RMK A01 T02290017  RH  025%=      5-min Rain = 0
KBY1 190215Z 26010KT 23/02 A2968 RMK A01 T02280017  RH  025%=      5-min Rain = 0
KBY1 190216Z 26008KT 23/02 A2968 RMK A01 T02280016  RH  025%=      5-min Rain = 0
KBY1 190217Z 26010KT 23/02 A2968 RMK A01 T02290017  RH  025%=      5-min Rain = 0
KBY1 190218Z 26012KT 23/02 A2968 RMK A01 T02290017  RH  025%=      5-min Rain = 0
KBY1 190219Z 27010KT 23/02 A2968 RMK A01 T02300017  RH  025%=      5-min Rain = 0
KBY1 190220Z 27010KT 23/02 A2968 RMK A01 T02300018  RH  025%=      5-min Rain = 0
KBY1 190221Z 28009G15KT 23/02 A2968 RMK A01 T02300018  RH  025%=      5-min Rain = 0
KBY1 190222Z 27008KT 23/02 A2968 RMK A01 T02300017  RH  025%=      5-min Rain = 0
KBY1 190223Z 27008KT 23/02 A2968 RMK A01 T02300018  RH  025%=      5-min Rain = 0
KBY1 190224Z 27008KT 23/02 A2968 RMK A01 T02290018  RH  025%=      5-min Rain = 0
KBY1 190225Z 27007KT 23/02 A2968 RMK A01 T02280018  RH  025%=      5-min Rain = 0
KBY1 190226Z 27010KT 23/02 A2968 RMK A01 T02270018  RH  025%=      5-min Rain = 0
KBY1 190227Z 27008KT 23/02 A2968 RMK A01 T02280019  RH  025%=      5-min Rain = 0
KBY1 190228Z 27008KT 23/02 A2969 RMK A01 T02270019  RH  025%=      5-min Rain = 0
KBY1 190229Z 27009G14KT 23/02 A2969 RMK A01 T02270019  RH  025%=      5-min Rain = 0
KBY1 190230Z 27011KT 23/02 A2969 RMK A01 T02270019  RH  025%=      5-min Rain = 0
KBY1 190231Z 27007KT 23/02 A2969 RMK A01 T02280019  RH  025%=      5-min Rain = 0
KBY1 190232Z 27009KT 23/02 A2969 RMK A01 T02270019  RH  025%=      5-min Rain = 0
KBY1 190233Z 28005KT 23/02 A2969 RMK A01 T02270019  RH  025%=      5-min Rain = 0
KBY1 190234Z 29005KT 23/02 A2969 RMK A01 T02260020  RH  026%=      5-min Rain = 0
KBY1 190235Z 29007KT 23/02 A2969 RMK A01 T02260020  RH  026%=      5-min Rain = 0
KBY1 190236Z 29007KT 23/02 A2969 RMK A01 T02250020  RH  026%=      5-min Rain = 0
KBY1 190237Z 29006KT 23/02 A2969 RMK A01 T02250020  RH  026%=      5-min Rain = 0
KBY1 190238Z 29004G9KT 22/02 A2969 RMK A01 T02240021  RH  026%=      5-min Rain = 0
KBY1 190239Z 29005KT 22/02 A2969 RMK A01 T02230020  RH  026%=      5-min Rain = 0
KBY1 190240Z 29006KT 22/02 A2969 RMK A01 T02220020  RH  026%=      5-min Rain = 0
KBY1 190241Z 27004KT 22/02 A2969 RMK A01 T02220021  RH  027%=      5-min Rain = 0
KBY1 190242Z 28005KT 22/02 A2969 RMK A01 T02210021  RH  027%=      5-min Rain = 0
KBY1 190243Z 28004KT 22/02 A297 RMK A01 T02200021  RH  027%=      5-min Rain = 0
KBY1 190244Z 29005KT 22/02 A297 RMK A01 T02190021  RH  027%=      5-min Rain = 0
KBY1 190245Z 29004KT 22/02 A297 RMK A01 T02180021  RH  027%=      5-min Rain = 0
KBY1 190246Z 29005KT 22/02 A297 RMK A01 T02180020  RH  027%=      5-min Rain = 0
KBY1 190247Z 29006KT 22/02 A297 RMK A01 T02170020  RH  027%=      5-min Rain = 0
KBY1 190248Z 29005KT 22/02 A297 RMK A01 T02170020  RH  027%=      5-min Rain = 0
KBY1 190249Z 29006KT 22/02 A297 RMK A01 T02170020  RH  027%=      5-min Rain = 0
KBY1 190250Z 28006KT 22/02 A297 RMK A01 T02170019  RH  027%=      5-min Rain = 0
KBY1 190251Z 28005KT 22/02 A297 RMK A01 T02170020  RH  027%=      5-min Rain = 0
KBY1 190252Z 28004KT 22/02 A297 RMK A01 T02170021  RH  027%=      5-min Rain = 0
KBY1 190253Z 28005KT 22/02 A297 RMK A01 T02160021  RH  028%=      5-min Rain = 0
KBY1 190254Z 29005KT 22/02 A297 RMK A01 T02150021  RH  028%=      5-min Rain = 0
KBY1 190255Z 30005KT 22/02 A297 RMK A01 T02150020  RH  028%=      5-min Rain = 0
KBY1 190256Z 29004KT 21/02 A297 RMK A01 T02140021  RH  028%=      5-min Rain = 0
KBY1 190257Z 27005KT 21/02 A297 RMK A01 T02140021  RH  028%=      5-min Rain = 0
KBY1 190258Z 29006KT 22/02 A297 RMK A01 T02150021  RH  028%=      5-min Rain = 0
KBY1 190259Z 28006KT 22/02 A297 RMK A01 T02150021  RH  028%=      5-min Rain = 0
KBY1 190300Z 29005KT 22/02 A297 RMK A01 T02150021  RH  028%=      5-min Rain = 0
KBY1 190301Z 30004KT 22/02 A297 RMK A01 T02150022  RH  028%=      5-min Rain = 0
KBY1 190302Z 27005KT 21/02 A297 RMK A01 T02140022  RH  028%=      5-min Rain = 0
KBY1 190303Z 27005KT 21/02 A297 RMK A01 T02140021  RH  028%=      5-min Rain = 0
KBY1 190304Z 28005KT 21/02 A297 RMK A01 T02140022  RH  028%=      5-min Rain = 0
KBY1 190305Z 28005KT 21/02 A297 RMK A01 T02130022  RH  028%=      5-min Rain = 0
KBY1 190306Z 28005KT 21/02 A297 RMK A01 T02120022  RH  028%=      5-min Rain = 0
KBY1 190307Z 27004KT 21/02 A297 RMK A01 T02110022  RH  028%=      5-min Rain = 0
KBY1 190308Z 28004KT 21/02 A297 RMK A01 T02110022  RH  028%=      5-min Rain = 0
KBY1 190309Z 28004KT 21/02 A297 RMK A01 T02110022  RH  029%=      5-min Rain = 0
KBY1 190310Z 28005KT 21/02 A297 RMK A01 T02110022  RH  029%=      5-min Rain = 0
KBY1 190311Z 29005KT 21/02 A297 RMK A01 T02110020  RH  028%=      5-min Rain = 0
KBY1 190312Z 29005KT 21/02 A297 RMK A01 T02120020  RH  028%=      5-min Rain = 0
KBY1 190313Z 29005KT 21/02 A297 RMK A01 T02120020  RH  028%=      5-min Rain = 0
KBY1 190314Z 29006KT 21/02 A297 RMK A01 T02110019  RH  028%=      5-min Rain = 0
KBY1 190315Z 29005KT 21/02 A297 RMK A01 T02110019  RH  028%=      5-min Rain = 0
KBY1 190316Z 29005KT 21/02 A2971 RMK A01 T02110018  RH  028%=      5-min Rain = 0
KBY1 190317Z 29005KT 21/02 A2971 RMK A01 T02110018  RH  028%=      5-min Rain = 0
KBY1 190318Z 29006KT 21/02 A2971 RMK A01 T02100018  RH  028%=      5-min Rain = 0
KBY1 190319Z 29004KT 21/02 A2971 RMK A01 T02100017  RH  028%=      5-min Rain = 0
KBY1 190320Z 28006KT 21/02 A2971 RMK A01 T02090017  RH  028%=      5-min Rain = 0
KBY1 190321Z 29006KT 21/02 A2971 RMK A01 T02090017  RH  028%=      5-min Rain = 0
KBY1 190322Z 29006KT 21/02 A2971 RMK A01 T02090016  RH  028%=      5-min Rain = 0
KBY1 190323Z 29006KT 21/02 A2971 RMK A01 T02090015  RH  028%=      5-min Rain = 0
KBY1 190324Z 29006KT 21/02 A2971 RMK A01 T02090015  RH  028%=      5-min Rain = 0
KBY1 190325Z 30006G11KT 21/02 A2971 RMK A01 T02090015  RH  028%=      5-min Rain = 0
KBY1 190326Z 30007G13KT 21/01 A2971 RMK A01 T02080014  RH  027%=      5-min Rain = 0
KBY1 190327Z 29006KT 21/01 A2971 RMK A01 T02090013  RH  027%=      5-min Rain = 0
KBY1 190328Z 29007KT 21/01 A2971 RMK A01 T02090013  RH  027%=      5-min Rain = 0
KBY1 190329Z 29005KT 21/01 A2971 RMK A01 T02090013  RH  027%=      5-min Rain = 0
KBY1 190330Z 30005KT 21/01 A2971 RMK A01 T02080012  RH  027%=      5-min Rain = 0
KBY1 190331Z 29005KT 21/01 A2971 RMK A01 T02080012  RH  027%=      5-min Rain = 0
KBY1 190332Z 30006KT 21/01 A2971 RMK A01 T02080011  RH  027%=      5-min Rain = 0
KBY1 190333Z 29007KT 21/01 A2972 RMK A01 T02080010  RH  027%=      5-min Rain = 0
KBY1 190334Z 29006KT 21/01 A2972 RMK A01 T02080009  RH  027%=      5-min Rain = 0
KBY1 190335Z 30006G11KT 21/01 A2972 RMK A01 T02070009  RH  027%=      5-min Rain = 0
KBY1 190336Z 29008KT 21/01 A2972 RMK A01 T02070008  RH  027%=      5-min Rain = 0
KBY1 190337Z 28007KT 21/01 A2972 RMK A01 T02070008  RH  027%=      5-min Rain = 0
KBY1 190338Z 27005KT 21/01 A2972 RMK A01 T02060008  RH  027%=      5-min Rain = 0
KBY1 190339Z 28004KT 21/01 A2972 RMK A01 T02050008  RH  027%=      5-min Rain = 0
KBY1 190340Z 28005KT 20/01 A2972 RMK A01 T02040008  RH  027%=      5-min Rain = 0
KBY1 190341Z 29005KT 20/01 A2972 RMK A01 T02030008  RH  027%=      5-min Rain = 0
KBY1 190342Z 30008KT 20/01 A2972 RMK A01 T02020008  RH  027%=      5-min Rain = 0
KBY1 190343Z 29006KT 20/01 A2972 RMK A01 T02020008  RH  027%=      5-min Rain = 0
KBY1 190344Z 29006KT 20/01 A2972 RMK A01 T02010008  RH  028%=      5-min Rain = 0
KBY1 190345Z 29007KT 20/01 A2973 RMK A01 T02010008  RH  028%=      5-min Rain = 0
KBY1 190346Z 29006KT 20/01 A2973 RMK A01 T02010008  RH  028%=      5-min Rain = 0
KBY1 190347Z 30005KT 20/01 A2973 RMK A01 T02000008  RH  028%=      5-min Rain = 0
KBY1 190348Z 30006KT 20/01 A2973 RMK A01 T01990008  RH  028%=      5-min Rain = 0
KBY1 190349Z 29006KT 20/01 A2973 RMK A01 T01980008  RH  028%=      5-min Rain = 0
KBY1 190350Z 30005KT 20/01 A2974 RMK A01 T01970008  RH  028%=      5-min Rain = 0
KBY1 190351Z 29006KT 20/01 A2974 RMK A01 T01970008  RH  028%=      5-min Rain = 0
KBY1 190352Z 30007KT 20/01 A2974 RMK A01 T01960008  RH  029%=      5-min Rain = 0
KBY1 190353Z 29009G16KT 20/01 A2974 RMK A01 T01950007  RH  028%=      5-min Rain = 0
KBY1 190354Z 31009G14KT 20/01 A2974 RMK A01 T01960005  RH  028%=      5-min Rain = 0
KBY1 190355Z 30013KT 20/01 A2974 RMK A01 T01970006  RH  028%=      5-min Rain = 0
KBY1 190356Z 31013KT 20/01 A2974 RMK A01 T01970005  RH  028%=      5-min Rain = 0
KBY1 190357Z 31013KT 20/01 A2974 RMK A01 T01980005  RH  027%=      5-min Rain = 0
KBY1 190358Z 31012KT 20/00 A2974 RMK A01 T01980004  RH  027%=      5-min Rain = 0
KBY1 190359Z 31010KT 20/00 A2974 RMK A01 T01980004  RH  027%=      5-min Rain = 0
KBY1 190400Z 31010G15KT 20/00 A2975 RMK A01 T01980004  RH  027%=      5-min Rain = 0
KBY1 190401Z 32008KT 20/00 A2975 RMK A01 T01970004  RH  027%=      5-min Rain = 0
KBY1 190402Z 31011KT 20/00 A2975 RMK A01 T01960004  RH  028%=      5-min Rain = 0
KBY1 190403Z 32010KT 20/00 A2975 RMK A01 T01960004  RH  028%=      5-min Rain = 0
KBY1 190404Z 32010G16KT 20/00 A2975 RMK A01 T01960004  RH  028%=      5-min Rain = 0
KBY1 190405Z 32008KT 20/00 A2975 RMK A01 T01950004  RH  028%=      5-min Rain = 0
KBY1 190406Z 32006KT 19/01 A2975 RMK A01 T01940005  RH  028%=      5-min Rain = 0
KBY1 190407Z 33006KT 19/01 A2975 RMK A01 T01930005  RH  028%=      5-min Rain = 0
KBY1 190408Z 33005KT 19/01 A2975 RMK A01 T01920005  RH  028%=      5-min Rain = 0
KBY1 190409Z 33004KT 19/01 A2975 RMK A01 T01910005  RH  029%=      5-min Rain = 0
KBY1 190410Z 32005KT 19/01 A2975 RMK A01 T01900006  RH  029%=      5-min Rain = 0
KBY1 190411Z 32006KT 19/01 A2976 RMK A01 T01900005  RH  029%=      5-min Rain = 0
KBY1 190412Z 32006KT 19/01 A2976 RMK A01 T01890006  RH  029%=      5-min Rain = 0
KBY1 190413Z 33005KT 19/01 A2976 RMK A01 T01890006  RH  029%=      5-min Rain = 0
KBY1 190414Z 32005KT 19/01 A2976 RMK A01 T01880006  RH  030%=      5-min Rain = 0
KBY1 190415Z 32006KT 19/01 A2976 RMK A01 T01870006  RH  030%=      5-min Rain = 0
KBY1 190416Z 35006KT 19/01 A2976 RMK A01 T01860007  RH  030%=      5-min Rain = 0
KBY1 190417Z 34004KT 19/01 A2976 RMK A01 T01850007  RH  030%=      5-min Rain = 0
KBY1 190418Z 35007G14KT 19/01 A2977 RMK A01 T01850007  RH  030%=      5-min Rain = 0
KBY1 190419Z 34009KT 18/01 A2976 RMK A01 T01840007  RH  030%=      5-min Rain = 0
KBY1 190420Z 35009KT 19/01 A2976 RMK A01 T01850008  RH  030%=      5-min Rain = 0
KBY1 190421Z 36008KT 19/01 A2976 RMK A01 T01850008  RH  030%=      5-min Rain = 0
KBY1 190422Z 00011KT 19/01 A2976 RMK A01 T01850009  RH  030%=      5-min Rain = 0
KBY1 190423Z 35008G13KT 19/01 A2976 RMK A01 T01850009  RH  031%=      5-min Rain = 0
KBY1 190424Z 35010KT 19/01 A2976 RMK A01 T01850009  RH  031%=      5-min Rain = 0
KBY1 190425Z 35007KT 19/01 A2977 RMK A01 T01850009  RH  031%=      5-min Rain = 0
KBY1 190426Z 34005KT 19/01 A2977 RMK A01 T01850010  RH  031%=      5-min Rain = 0
KBY1 190427Z 35007KT 18/01 A2977 RMK A01 T01830009  RH  031%=      5-min Rain = 0
KBY1 190428Z 35004KT 18/01 A2977 RMK A01 T01820009  RH  031%=      5-min Rain = 0
KBY1 190429Z 00006KT 18/01 A2977 RMK A01 T01820009  RH  031%=      5-min Rain = 0
KBY1 190430Z 35008G13KT 18/01 A2977 RMK A01 T01820010  RH  031%=      5-min Rain = 0
KBY1 190431Z 36009KT 18/01 A2977 RMK A01 T01810010  RH  031%=      5-min Rain = 0
KBY1 190432Z 01010KT 18/01 A2977 RMK A01 T01810010  RH  032%=      5-min Rain = 0
KBY1 190433Z 00008KT 18/01 A2977 RMK A01 T01810009  RH  032%=      5-min Rain = 0
KBY1 190434Z 01007KT 18/01 A2977 RMK A01 T01810010  RH  032%=      5-min Rain = 0
KBY1 190435Z 01007KT 18/01 A2977 RMK A01 T01800011  RH  032%=      5-min Rain = 0
KBY1 190436Z 01008KT 18/01 A2977 RMK A01 T01790011  RH  032%=      5-min Rain = 0
KBY1 190437Z 01008G15KT 18/01 A2977 RMK A01 T01790010  RH  032%=      5-min Rain = 0
KBY1 190438Z 01008G13KT 18/01 A2977 RMK A01 T01790011  RH  032%=      5-min Rain = 0
KBY1 190439Z 01009KT 18/01 A2977 RMK A01 T01780011  RH  032%=      5-min Rain = 0
KBY1 190440Z 01009KT 18/01 A2978 RMK A01 T01780011  RH  032%=      5-min Rain = 0
KBY1 190441Z 02010KT 18/01 A2978 RMK A01 T01780011  RH  033%=      5-min Rain = 0
KBY1 190442Z 36007KT 18/01 A2978 RMK A01 T01780012  RH  033%=      5-min Rain = 0
KBY1 190443Z 01011KT 18/01 A2978 RMK A01 T01770012  RH  033%=      5-min Rain = 0
KBY1 190444Z 00006KT 18/01 A2978 RMK A01 T01770012  RH  033%=      5-min Rain = 0
KBY1 190445Z 01009KT 18/01 A2978 RMK A01 T01770012  RH  033%=      5-min Rain = 0
KBY1 190446Z 01009KT 18/01 A2978 RMK A01 T01760012  RH  033%=      5-min Rain = 0
KBY1 190447Z 01006KT 18/01 A2978 RMK A01 T01760013  RH  033%=      5-min Rain = 0
KBY1 190448Z 01011G16KT 18/01 A2978 RMK A01 T01760013  RH  033%=      5-min Rain = 0
KBY1 190449Z 00016KT 18/01 A2978 RMK A01 T01750012  RH  033%=      5-min Rain = 0
KBY1 190450Z 01011G16KT 18/01 A2978 RMK A01 T01760012  RH  033%=      5-min Rain = 0
KBY1 190451Z 01008G13KT 18/01 A2978 RMK A01 T01760012  RH  033%=      5-min Rain = 0
KBY1 190452Z 00011KT 18/01 A2978 RMK A01 T01760012  RH  033%=      5-min Rain = 0
KBY1 190453Z 01011KT 18/01 A2978 RMK A01 T01750012  RH  033%=      5-min Rain = 0
KBY1 190454Z 01012G17KT 18/01 A2978 RMK A01 T01750013  RH  034%=      5-min Rain = 0
KBY1 190455Z 01015KT 18/01 A2978 RMK A01 T01750013  RH  034%=      5-min Rain = 0
KBY1 190456Z 02014KT 17/01 A2978 RMK A01 T01740013  RH  034%=      5-min Rain = 0
KBY1 190457Z 02015G20KT 17/01 A2978 RMK A01 T01740013  RH  034%=      5-min Rain = 0
KBY1 190458Z 01012KT 17/01 A2978 RMK A01 T01740013  RH  034%=      5-min Rain = 0
KBY1 190459Z 01012KT 17/01 A2978 RMK A01 T01740013  RH  034%=      5-min Rain = 0

Page generated in 0.0708 seconds.